<?xml version="1.0" encoding="UTF-8" standalone="no" ?>
<gpx xmlns="http://www.topografix.com/GPX/1/1" xmlns:xsi="http://www.w3.org/2001/XMLSchema-instance" xsi:schemaLocation="http://www.topografix.com/GPX/1/1 http://www.topografix.com/GPX/1/1/gpx.xsd" version="1.1" creator="VisuGPX - https://www.visugpx.com">
  <metadata>
    <name>Noel 2013</name>
    <desc><![CDATA[samedi 21 décembre 2013 avec tous les groupes du club.]]></desc>
  </metadata>
  <trk>
    <name><![CDATA[noel 2013]]></name>
    <trkseg>
      <trkpt lat="44.47208" lon="0.93413">
        <ele>65.51</ele>
        <time>2013-12-21T13:17:06Z</time>
      </trkpt>
      <trkpt lat="44.47204" lon="0.93416">
        <ele>61.18</ele>
        <time>2013-12-21T13:17:46Z</time>
      </trkpt>
      <trkpt lat="44.47206" lon="0.93415">
        <ele>63.1</ele>
        <time>2013-12-21T13:18:08Z</time>
      </trkpt>
      <trkpt lat="44.47204" lon="0.93413">
        <ele>62.62</ele>
        <time>2013-12-21T13:18:16Z</time>
      </trkpt>
      <trkpt lat="44.47195" lon="0.93424">
        <ele>63.1</ele>
        <time>2013-12-21T13:18:25Z</time>
      </trkpt>
      <trkpt lat="44.4719" lon="0.93433">
        <ele>61.66</ele>
        <time>2013-12-21T13:18:40Z</time>
      </trkpt>
      <trkpt lat="44.47188" lon="0.93439">
        <ele>60.7</ele>
        <time>2013-12-21T13:19:00Z</time>
      </trkpt>
      <trkpt lat="44.47187" lon="0.93437">
        <ele>60.7</ele>
        <time>2013-12-21T13:19:15Z</time>
      </trkpt>
      <trkpt lat="44.47187" lon="0.93437">
        <ele>59.74</ele>
        <time>2013-12-21T13:19:43Z</time>
      </trkpt>
      <trkpt lat="44.47187" lon="0.93436">
        <ele>60.7</ele>
        <time>2013-12-21T13:20:11Z</time>
      </trkpt>
      <trkpt lat="44.47188" lon="0.93435">
        <ele>61.18</ele>
        <time>2013-12-21T13:20:22Z</time>
      </trkpt>
      <trkpt lat="44.47188" lon="0.93435">
        <ele>61.66</ele>
        <time>2013-12-21T13:20:46Z</time>
      </trkpt>
      <trkpt lat="44.47187" lon="0.93436">
        <ele>61.66</ele>
        <time>2013-12-21T13:21:10Z</time>
      </trkpt>
      <trkpt lat="44.47187" lon="0.93435">
        <ele>61.66</ele>
        <time>2013-12-21T13:21:29Z</time>
      </trkpt>
      <trkpt lat="44.47187" lon="0.93436">
        <ele>61.18</ele>
        <time>2013-12-21T13:21:46Z</time>
      </trkpt>
      <trkpt lat="44.47189" lon="0.93436">
        <ele>61.18</ele>
        <time>2013-12-21T13:22:04Z</time>
      </trkpt>
      <trkpt lat="44.4719" lon="0.93436">
        <ele>60.22</ele>
        <time>2013-12-21T13:22:38Z</time>
      </trkpt>
      <trkpt lat="44.4719" lon="0.93436">
        <ele>59.74</ele>
        <time>2013-12-21T13:23:03Z</time>
      </trkpt>
      <trkpt lat="44.47191" lon="0.93436">
        <ele>59.26</ele>
        <time>2013-12-21T13:23:15Z</time>
      </trkpt>
      <trkpt lat="44.47193" lon="0.93442">
        <ele>59.26</ele>
        <time>2013-12-21T13:23:19Z</time>
      </trkpt>
      <trkpt lat="44.47192" lon="0.93446">
        <ele>59.74</ele>
        <time>2013-12-21T13:23:21Z</time>
      </trkpt>
      <trkpt lat="44.47189" lon="0.93454">
        <ele>59.74</ele>
        <time>2013-12-21T13:23:25Z</time>
      </trkpt>
      <trkpt lat="44.47188" lon="0.93457">
        <ele>60.22</ele>
        <time>2013-12-21T13:23:27Z</time>
      </trkpt>
      <trkpt lat="44.47161" lon="0.93472">
        <ele>61.18</ele>
        <time>2013-12-21T13:23:39Z</time>
      </trkpt>
      <trkpt lat="44.47111" lon="0.93493">
        <ele>60.22</ele>
        <time>2013-12-21T13:23:54Z</time>
      </trkpt>
      <trkpt lat="44.4711" lon="0.93493">
        <ele>60.22</ele>
        <time>2013-12-21T13:23:55Z</time>
      </trkpt>
      <trkpt lat="44.47109" lon="0.93492">
        <ele>60.7</ele>
        <time>2013-12-21T13:24:09Z</time>
      </trkpt>
      <trkpt lat="44.47107" lon="0.9349">
        <ele>60.7</ele>
        <time>2013-12-21T13:24:11Z</time>
      </trkpt>
      <trkpt lat="44.47105" lon="0.93488">
        <ele>61.18</ele>
        <time>2013-12-21T13:24:12Z</time>
      </trkpt>
      <trkpt lat="44.47104" lon="0.93485">
        <ele>61.18</ele>
        <time>2013-12-21T13:24:13Z</time>
      </trkpt>
      <trkpt lat="44.47096" lon="0.93478">
        <ele>61.18</ele>
        <time>2013-12-21T13:24:16Z</time>
      </trkpt>
      <trkpt lat="44.47092" lon="0.93478">
        <ele>61.18</ele>
        <time>2013-12-21T13:24:17Z</time>
      </trkpt>
      <trkpt lat="44.47088" lon="0.93478">
        <ele>61.18</ele>
        <time>2013-12-21T13:24:18Z</time>
      </trkpt>
      <trkpt lat="44.47084" lon="0.9348">
        <ele>61.18</ele>
        <time>2013-12-21T13:24:19Z</time>
      </trkpt>
      <trkpt lat="44.47081" lon="0.93482">
        <ele>61.18</ele>
        <time>2013-12-21T13:24:20Z</time>
      </trkpt>
      <trkpt lat="44.47051" lon="0.9351">
        <ele>61.18</ele>
        <time>2013-12-21T13:24:29Z</time>
      </trkpt>
      <trkpt lat="44.47001" lon="0.93559">
        <ele>60.7</ele>
        <time>2013-12-21T13:24:42Z</time>
      </trkpt>
      <trkpt lat="44.46985" lon="0.93575">
        <ele>60.7</ele>
        <time>2013-12-21T13:24:46Z</time>
      </trkpt>
      <trkpt lat="44.46963" lon="0.9359">
        <ele>60.22</ele>
        <time>2013-12-21T13:24:51Z</time>
      </trkpt>
      <trkpt lat="44.46959" lon="0.93592">
        <ele>60.7</ele>
        <time>2013-12-21T13:24:52Z</time>
      </trkpt>
      <trkpt lat="44.46954" lon="0.93593">
        <ele>60.7</ele>
        <time>2013-12-21T13:24:53Z</time>
      </trkpt>
      <trkpt lat="44.4695" lon="0.93593">
        <ele>60.7</ele>
        <time>2013-12-21T13:24:54Z</time>
      </trkpt>
      <trkpt lat="44.46946" lon="0.93592">
        <ele>60.7</ele>
        <time>2013-12-21T13:24:55Z</time>
      </trkpt>
      <trkpt lat="44.46941" lon="0.93591">
        <ele>60.7</ele>
        <time>2013-12-21T13:24:56Z</time>
      </trkpt>
      <trkpt lat="44.46937" lon="0.9359">
        <ele>60.7</ele>
        <time>2013-12-21T13:24:57Z</time>
      </trkpt>
      <trkpt lat="44.46924" lon="0.93585">
        <ele>60.7</ele>
        <time>2013-12-21T13:25:00Z</time>
      </trkpt>
      <trkpt lat="44.46919" lon="0.93583">
        <ele>60.7</ele>
        <time>2013-12-21T13:25:01Z</time>
      </trkpt>
      <trkpt lat="44.46915" lon="0.93581">
        <ele>60.7</ele>
        <time>2013-12-21T13:25:02Z</time>
      </trkpt>
      <trkpt lat="44.46841" lon="0.93549">
        <ele>61.18</ele>
        <time>2013-12-21T13:25:18Z</time>
      </trkpt>
      <trkpt lat="44.46808" lon="0.93539">
        <ele>61.18</ele>
        <time>2013-12-21T13:25:26Z</time>
      </trkpt>
      <trkpt lat="44.46806" lon="0.93541">
        <ele>61.18</ele>
        <time>2013-12-21T13:25:27Z</time>
      </trkpt>
      <trkpt lat="44.46802" lon="0.93564">
        <ele>62.62</ele>
        <time>2013-12-21T13:25:33Z</time>
      </trkpt>
      <trkpt lat="44.46796" lon="0.93585">
        <ele>64.07</ele>
        <time>2013-12-21T13:25:41Z</time>
      </trkpt>
      <trkpt lat="44.46795" lon="0.93591">
        <ele>65.03</ele>
        <time>2013-12-21T13:25:46Z</time>
      </trkpt>
      <trkpt lat="44.46798" lon="0.93595">
        <ele>65.99</ele>
        <time>2013-12-21T13:25:49Z</time>
      </trkpt>
      <trkpt lat="44.46801" lon="0.93597">
        <ele>65.99</ele>
        <time>2013-12-21T13:25:52Z</time>
      </trkpt>
      <trkpt lat="44.46803" lon="0.93598">
        <ele>65.99</ele>
        <time>2013-12-21T13:25:53Z</time>
      </trkpt>
      <trkpt lat="44.46806" lon="0.93599">
        <ele>65.99</ele>
        <time>2013-12-21T13:25:54Z</time>
      </trkpt>
      <trkpt lat="44.46809" lon="0.93601">
        <ele>65.99</ele>
        <time>2013-12-21T13:25:55Z</time>
      </trkpt>
      <trkpt lat="44.46812" lon="0.93602">
        <ele>65.99</ele>
        <time>2013-12-21T13:25:56Z</time>
      </trkpt>
      <trkpt lat="44.46815" lon="0.93603">
        <ele>65.99</ele>
        <time>2013-12-21T13:25:57Z</time>
      </trkpt>
      <trkpt lat="44.46858" lon="0.93622">
        <ele>68.39</ele>
        <time>2013-12-21T13:26:10Z</time>
      </trkpt>
      <trkpt lat="44.4686" lon="0.93624">
        <ele>68.39</ele>
        <time>2013-12-21T13:26:11Z</time>
      </trkpt>
      <trkpt lat="44.4686" lon="0.93625">
        <ele>68.39</ele>
        <time>2013-12-21T13:26:19Z</time>
      </trkpt>
      <trkpt lat="44.46861" lon="0.93625">
        <ele>68.39</ele>
        <time>2013-12-21T13:26:43Z</time>
      </trkpt>
      <trkpt lat="44.46861" lon="0.93625">
        <ele>68.39</ele>
        <time>2013-12-21T13:26:57Z</time>
      </trkpt>
      <trkpt lat="44.46861" lon="0.93629">
        <ele>68.39</ele>
        <time>2013-12-21T13:26:58Z</time>
      </trkpt>
      <trkpt lat="44.46861" lon="0.93638">
        <ele>68.39</ele>
        <time>2013-12-21T13:27:00Z</time>
      </trkpt>
      <trkpt lat="44.4686" lon="0.93643">
        <ele>68.39</ele>
        <time>2013-12-21T13:27:01Z</time>
      </trkpt>
      <trkpt lat="44.46858" lon="0.93648">
        <ele>68.39</ele>
        <time>2013-12-21T13:27:02Z</time>
      </trkpt>
      <trkpt lat="44.46846" lon="0.9368">
        <ele>68.87</ele>
        <time>2013-12-21T13:27:07Z</time>
      </trkpt>
      <trkpt lat="44.46844" lon="0.93687">
        <ele>68.87</ele>
        <time>2013-12-21T13:27:08Z</time>
      </trkpt>
      <trkpt lat="44.46808" lon="0.93796">
        <ele>70.31</ele>
        <time>2013-12-21T13:27:25Z</time>
      </trkpt>
      <trkpt lat="44.46803" lon="0.93809">
        <ele>70.31</ele>
        <time>2013-12-21T13:27:27Z</time>
      </trkpt>
      <trkpt lat="44.46769" lon="0.93906">
        <ele>70.31</ele>
        <time>2013-12-21T13:27:42Z</time>
      </trkpt>
      <trkpt lat="44.46742" lon="0.93985">
        <ele>70.31</ele>
        <time>2013-12-21T13:27:55Z</time>
      </trkpt>
      <trkpt lat="44.4674" lon="0.9399">
        <ele>70.31</ele>
        <time>2013-12-21T13:27:56Z</time>
      </trkpt>
      <trkpt lat="44.46717" lon="0.94027">
        <ele>71.27</ele>
        <time>2013-12-21T13:28:06Z</time>
      </trkpt>
      <trkpt lat="44.46714" lon="0.94026">
        <ele>71.27</ele>
        <time>2013-12-21T13:28:07Z</time>
      </trkpt>
      <trkpt lat="44.46667" lon="0.94009">
        <ele>71.76</ele>
        <time>2013-12-21T13:28:21Z</time>
      </trkpt>
      <trkpt lat="44.46633" lon="0.93997">
        <ele>73.2</ele>
        <time>2013-12-21T13:28:33Z</time>
      </trkpt>
      <trkpt lat="44.46601" lon="0.93979">
        <ele>74.16</ele>
        <time>2013-12-21T13:28:45Z</time>
      </trkpt>
      <trkpt lat="44.46566" lon="0.93947">
        <ele>74.64</ele>
        <time>2013-12-21T13:28:57Z</time>
      </trkpt>
      <trkpt lat="44.46559" lon="0.93941">
        <ele>74.64</ele>
        <time>2013-12-21T13:28:59Z</time>
      </trkpt>
      <trkpt lat="44.46535" lon="0.93918">
        <ele>74.16</ele>
        <time>2013-12-21T13:29:06Z</time>
      </trkpt>
      <trkpt lat="44.46528" lon="0.93911">
        <ele>74.16</ele>
        <time>2013-12-21T13:29:08Z</time>
      </trkpt>
      <trkpt lat="44.46464" lon="0.93856">
        <ele>74.16</ele>
        <time>2013-12-21T13:29:25Z</time>
      </trkpt>
      <trkpt lat="44.46452" lon="0.9385">
        <ele>74.16</ele>
        <time>2013-12-21T13:29:28Z</time>
      </trkpt>
      <trkpt lat="44.46447" lon="0.93848">
        <ele>74.16</ele>
        <time>2013-12-21T13:29:29Z</time>
      </trkpt>
      <trkpt lat="44.46433" lon="0.93848">
        <ele>74.16</ele>
        <time>2013-12-21T13:29:32Z</time>
      </trkpt>
      <trkpt lat="44.46428" lon="0.93849">
        <ele>73.68</ele>
        <time>2013-12-21T13:29:33Z</time>
      </trkpt>
      <trkpt lat="44.46417" lon="0.93851">
        <ele>73.2</ele>
        <time>2013-12-21T13:29:35Z</time>
      </trkpt>
      <trkpt lat="44.46412" lon="0.93849">
        <ele>73.2</ele>
        <time>2013-12-21T13:29:36Z</time>
      </trkpt>
      <trkpt lat="44.46406" lon="0.93845">
        <ele>72.72</ele>
        <time>2013-12-21T13:29:37Z</time>
      </trkpt>
      <trkpt lat="44.46401" lon="0.9384">
        <ele>72.24</ele>
        <time>2013-12-21T13:29:38Z</time>
      </trkpt>
      <trkpt lat="44.46397" lon="0.93834">
        <ele>72.24</ele>
        <time>2013-12-21T13:29:39Z</time>
      </trkpt>
      <trkpt lat="44.46393" lon="0.93828">
        <ele>71.76</ele>
        <time>2013-12-21T13:29:40Z</time>
      </trkpt>
      <trkpt lat="44.46389" lon="0.93821">
        <ele>71.76</ele>
        <time>2013-12-21T13:29:41Z</time>
      </trkpt>
      <trkpt lat="44.46385" lon="0.93815">
        <ele>71.76</ele>
        <time>2013-12-21T13:29:42Z</time>
      </trkpt>
      <trkpt lat="44.46381" lon="0.93809">
        <ele>71.76</ele>
        <time>2013-12-21T13:29:43Z</time>
      </trkpt>
      <trkpt lat="44.46337" lon="0.9375">
        <ele>71.27</ele>
        <time>2013-12-21T13:29:53Z</time>
      </trkpt>
      <trkpt lat="44.46283" lon="0.93671">
        <ele>69.83</ele>
        <time>2013-12-21T13:30:07Z</time>
      </trkpt>
      <trkpt lat="44.4628" lon="0.93671">
        <ele>69.83</ele>
        <time>2013-12-21T13:30:08Z</time>
      </trkpt>
      <trkpt lat="44.46277" lon="0.93674">
        <ele>69.83</ele>
        <time>2013-12-21T13:30:09Z</time>
      </trkpt>
      <trkpt lat="44.46274" lon="0.93678">
        <ele>69.35</ele>
        <time>2013-12-21T13:30:10Z</time>
      </trkpt>
      <trkpt lat="44.46271" lon="0.93683">
        <ele>69.35</ele>
        <time>2013-12-21T13:30:11Z</time>
      </trkpt>
      <trkpt lat="44.46269" lon="0.93689">
        <ele>69.35</ele>
        <time>2013-12-21T13:30:12Z</time>
      </trkpt>
      <trkpt lat="44.46266" lon="0.93695">
        <ele>69.35</ele>
        <time>2013-12-21T13:30:13Z</time>
      </trkpt>
      <trkpt lat="44.46252" lon="0.93724">
        <ele>68.87</ele>
        <time>2013-12-21T13:30:18Z</time>
      </trkpt>
      <trkpt lat="44.4625" lon="0.9373">
        <ele>68.87</ele>
        <time>2013-12-21T13:30:19Z</time>
      </trkpt>
      <trkpt lat="44.46249" lon="0.93736">
        <ele>68.87</ele>
        <time>2013-12-21T13:30:20Z</time>
      </trkpt>
      <trkpt lat="44.46242" lon="0.93751">
        <ele>67.91</ele>
        <time>2013-12-21T13:30:26Z</time>
      </trkpt>
      <trkpt lat="44.46241" lon="0.93751">
        <ele>67.91</ele>
        <time>2013-12-21T13:30:27Z</time>
      </trkpt>
      <trkpt lat="44.46239" lon="0.93753">
        <ele>67.91</ele>
        <time>2013-12-21T13:30:28Z</time>
      </trkpt>
      <trkpt lat="44.46238" lon="0.93755">
        <ele>68.39</ele>
        <time>2013-12-21T13:30:29Z</time>
      </trkpt>
      <trkpt lat="44.46237" lon="0.93758">
        <ele>68.39</ele>
        <time>2013-12-21T13:30:30Z</time>
      </trkpt>
      <trkpt lat="44.46223" lon="0.93779">
        <ele>68.39</ele>
        <time>2013-12-21T13:30:39Z</time>
      </trkpt>
      <trkpt lat="44.46203" lon="0.93813">
        <ele>68.87</ele>
        <time>2013-12-21T13:30:50Z</time>
      </trkpt>
      <trkpt lat="44.46165" lon="0.93844">
        <ele>68.39</ele>
        <time>2013-12-21T13:31:02Z</time>
      </trkpt>
      <trkpt lat="44.46124" lon="0.93855">
        <ele>68.39</ele>
        <time>2013-12-21T13:31:14Z</time>
      </trkpt>
      <trkpt lat="44.46104" lon="0.93902">
        <ele>68.87</ele>
        <time>2013-12-21T13:31:26Z</time>
      </trkpt>
      <trkpt lat="44.46065" lon="0.93992">
        <ele>70.79</ele>
        <time>2013-12-21T13:31:41Z</time>
      </trkpt>
      <trkpt lat="44.46028" lon="0.94081">
        <ele>71.76</ele>
        <time>2013-12-21T13:31:58Z</time>
      </trkpt>
      <trkpt lat="44.46009" lon="0.94123">
        <ele>72.72</ele>
        <time>2013-12-21T13:32:06Z</time>
      </trkpt>
      <trkpt lat="44.46007" lon="0.94128">
        <ele>72.72</ele>
        <time>2013-12-21T13:32:07Z</time>
      </trkpt>
      <trkpt lat="44.46002" lon="0.94138">
        <ele>72.72</ele>
        <time>2013-12-21T13:32:09Z</time>
      </trkpt>
      <trkpt lat="44.45988" lon="0.94174">
        <ele>72.24</ele>
        <time>2013-12-21T13:32:17Z</time>
      </trkpt>
      <trkpt lat="44.45985" lon="0.94184">
        <ele>72.72</ele>
        <time>2013-12-21T13:32:19Z</time>
      </trkpt>
      <trkpt lat="44.45981" lon="0.94195">
        <ele>73.2</ele>
        <time>2013-12-21T13:32:21Z</time>
      </trkpt>
      <trkpt lat="44.4595" lon="0.94263">
        <ele>74.16</ele>
        <time>2013-12-21T13:32:33Z</time>
      </trkpt>
      <trkpt lat="44.45946" lon="0.94268">
        <ele>74.16</ele>
        <time>2013-12-21T13:32:34Z</time>
      </trkpt>
      <trkpt lat="44.45943" lon="0.94274">
        <ele>74.16</ele>
        <time>2013-12-21T13:32:35Z</time>
      </trkpt>
      <trkpt lat="44.45937" lon="0.94286">
        <ele>75.12</ele>
        <time>2013-12-21T13:32:37Z</time>
      </trkpt>
      <trkpt lat="44.45935" lon="0.94292">
        <ele>75.12</ele>
        <time>2013-12-21T13:32:38Z</time>
      </trkpt>
      <trkpt lat="44.45921" lon="0.94326">
        <ele>76.08</ele>
        <time>2013-12-21T13:32:44Z</time>
      </trkpt>
      <trkpt lat="44.45893" lon="0.9439">
        <ele>77.52</ele>
        <time>2013-12-21T13:32:56Z</time>
      </trkpt>
      <trkpt lat="44.45885" lon="0.94411">
        <ele>78.48</ele>
        <time>2013-12-21T13:33:00Z</time>
      </trkpt>
      <trkpt lat="44.45852" lon="0.94485">
        <ele>81.85</ele>
        <time>2013-12-21T13:33:16Z</time>
      </trkpt>
      <trkpt lat="44.4585" lon="0.94494">
        <ele>82.33</ele>
        <time>2013-12-21T13:33:19Z</time>
      </trkpt>
      <trkpt lat="44.45848" lon="0.94494">
        <ele>82.33</ele>
        <time>2013-12-21T13:33:20Z</time>
      </trkpt>
      <trkpt lat="44.45847" lon="0.94493">
        <ele>82.33</ele>
        <time>2013-12-21T13:33:21Z</time>
      </trkpt>
      <trkpt lat="44.45846" lon="0.94491">
        <ele>81.85</ele>
        <time>2013-12-21T13:33:22Z</time>
      </trkpt>
      <trkpt lat="44.45845" lon="0.9449">
        <ele>81.85</ele>
        <time>2013-12-21T13:33:31Z</time>
      </trkpt>
      <trkpt lat="44.45846" lon="0.94489">
        <ele>83.29</ele>
        <time>2013-12-21T13:33:57Z</time>
      </trkpt>
      <trkpt lat="44.45846" lon="0.9449">
        <ele>82.33</ele>
        <time>2013-12-21T13:34:29Z</time>
      </trkpt>
      <trkpt lat="44.45844" lon="0.9449">
        <ele>83.77</ele>
        <time>2013-12-21T13:35:05Z</time>
      </trkpt>
      <trkpt lat="44.45844" lon="0.9449">
        <ele>84.25</ele>
        <time>2013-12-21T13:35:25Z</time>
      </trkpt>
      <trkpt lat="44.45844" lon="0.9449">
        <ele>84.73</ele>
        <time>2013-12-21T13:35:46Z</time>
      </trkpt>
      <trkpt lat="44.4584" lon="0.94487">
        <ele>84.73</ele>
        <time>2013-12-21T13:36:06Z</time>
      </trkpt>
      <trkpt lat="44.45818" lon="0.94481">
        <ele>85.21</ele>
        <time>2013-12-21T13:36:17Z</time>
      </trkpt>
      <trkpt lat="44.45782" lon="0.9448">
        <ele>85.21</ele>
        <time>2013-12-21T13:36:27Z</time>
      </trkpt>
      <trkpt lat="44.45777" lon="0.9448">
        <ele>85.69</ele>
        <time>2013-12-21T13:36:28Z</time>
      </trkpt>
      <trkpt lat="44.45763" lon="0.94479">
        <ele>86.18</ele>
        <time>2013-12-21T13:36:31Z</time>
      </trkpt>
      <trkpt lat="44.45758" lon="0.94478">
        <ele>86.66</ele>
        <time>2013-12-21T13:36:32Z</time>
      </trkpt>
      <trkpt lat="44.45752" lon="0.94477">
        <ele>87.14</ele>
        <time>2013-12-21T13:36:33Z</time>
      </trkpt>
      <trkpt lat="44.45747" lon="0.94476">
        <ele>87.14</ele>
        <time>2013-12-21T13:36:34Z</time>
      </trkpt>
      <trkpt lat="44.45741" lon="0.94476">
        <ele>87.14</ele>
        <time>2013-12-21T13:36:35Z</time>
      </trkpt>
      <trkpt lat="44.45726" lon="0.94477">
        <ele>88.1</ele>
        <time>2013-12-21T13:36:38Z</time>
      </trkpt>
      <trkpt lat="44.45716" lon="0.9448">
        <ele>88.58</ele>
        <time>2013-12-21T13:36:40Z</time>
      </trkpt>
      <trkpt lat="44.45667" lon="0.9448">
        <ele>95.31</ele>
        <time>2013-12-21T13:36:53Z</time>
      </trkpt>
      <trkpt lat="44.45632" lon="0.9448">
        <ele>99.63</ele>
        <time>2013-12-21T13:37:04Z</time>
      </trkpt>
      <trkpt lat="44.45602" lon="0.94478">
        <ele>103</ele>
        <time>2013-12-21T13:37:15Z</time>
      </trkpt>
      <trkpt lat="44.45565" lon="0.9448">
        <ele>105.4</ele>
        <time>2013-12-21T13:37:26Z</time>
      </trkpt>
      <trkpt lat="44.45531" lon="0.94482">
        <ele>108.29</ele>
        <time>2013-12-21T13:37:37Z</time>
      </trkpt>
      <trkpt lat="44.45505" lon="0.94483">
        <ele>111.17</ele>
        <time>2013-12-21T13:37:47Z</time>
      </trkpt>
      <trkpt lat="44.45484" lon="0.94485">
        <ele>114.53</ele>
        <time>2013-12-21T13:37:56Z</time>
      </trkpt>
      <trkpt lat="44.45466" lon="0.94487">
        <ele>115.98</ele>
        <time>2013-12-21T13:38:02Z</time>
      </trkpt>
      <trkpt lat="44.45436" lon="0.94484">
        <ele>117.9</ele>
        <time>2013-12-21T13:38:12Z</time>
      </trkpt>
      <trkpt lat="44.45433" lon="0.94481">
        <ele>118.38</ele>
        <time>2013-12-21T13:38:21Z</time>
      </trkpt>
      <trkpt lat="44.45432" lon="0.94477">
        <ele>117.42</ele>
        <time>2013-12-21T13:38:46Z</time>
      </trkpt>
      <trkpt lat="44.45431" lon="0.94478">
        <ele>116.94</ele>
        <time>2013-12-21T13:39:07Z</time>
      </trkpt>
      <trkpt lat="44.4543" lon="0.94477">
        <ele>115.98</ele>
        <time>2013-12-21T13:39:32Z</time>
      </trkpt>
      <trkpt lat="44.45429" lon="0.94478">
        <ele>115.01</ele>
        <time>2013-12-21T13:40:00Z</time>
      </trkpt>
      <trkpt lat="44.45428" lon="0.94478">
        <ele>115.01</ele>
        <time>2013-12-21T13:40:23Z</time>
      </trkpt>
      <trkpt lat="44.45427" lon="0.94478">
        <ele>114.05</ele>
        <time>2013-12-21T13:40:50Z</time>
      </trkpt>
      <trkpt lat="44.45426" lon="0.94478">
        <ele>114.05</ele>
        <time>2013-12-21T13:41:16Z</time>
      </trkpt>
      <trkpt lat="44.45426" lon="0.94478">
        <ele>114.05</ele>
        <time>2013-12-21T13:41:46Z</time>
      </trkpt>
      <trkpt lat="44.45426" lon="0.94478">
        <ele>114.05</ele>
        <time>2013-12-21T13:41:50Z</time>
      </trkpt>
      <trkpt lat="44.45422" lon="0.94459">
        <ele>112.61</ele>
        <time>2013-12-21T13:41:56Z</time>
      </trkpt>
      <trkpt lat="44.45413" lon="0.94441">
        <ele>112.61</ele>
        <time>2013-12-21T13:42:00Z</time>
      </trkpt>
      <trkpt lat="44.45402" lon="0.94407">
        <ele>112.61</ele>
        <time>2013-12-21T13:42:06Z</time>
      </trkpt>
      <trkpt lat="44.4537" lon="0.9436">
        <ele>112.13</ele>
        <time>2013-12-21T13:42:17Z</time>
      </trkpt>
      <trkpt lat="44.4534" lon="0.94343">
        <ele>110.21</ele>
        <time>2013-12-21T13:42:25Z</time>
      </trkpt>
      <trkpt lat="44.45318" lon="0.9433">
        <ele>109.25</ele>
        <time>2013-12-21T13:42:34Z</time>
      </trkpt>
      <trkpt lat="44.453" lon="0.94306">
        <ele>107.32</ele>
        <time>2013-12-21T13:42:43Z</time>
      </trkpt>
      <trkpt lat="44.45276" lon="0.94288">
        <ele>109.25</ele>
        <time>2013-12-21T13:42:55Z</time>
      </trkpt>
      <trkpt lat="44.45273" lon="0.94289">
        <ele>109.25</ele>
        <time>2013-12-21T13:43:08Z</time>
      </trkpt>
      <trkpt lat="44.45273" lon="0.94289">
        <ele>109.25</ele>
        <time>2013-12-21T13:43:10Z</time>
      </trkpt>
      <trkpt lat="44.45268" lon="0.94306">
        <ele>111.65</ele>
        <time>2013-12-21T13:43:22Z</time>
      </trkpt>
      <trkpt lat="44.45264" lon="0.94322">
        <ele>114.05</ele>
        <time>2013-12-21T13:43:34Z</time>
      </trkpt>
      <trkpt lat="44.45263" lon="0.94329">
        <ele>114.05</ele>
        <time>2013-12-21T13:43:39Z</time>
      </trkpt>
      <trkpt lat="44.45256" lon="0.94348">
        <ele>115.98</ele>
        <time>2013-12-21T13:43:51Z</time>
      </trkpt>
      <trkpt lat="44.45255" lon="0.94352">
        <ele>116.46</ele>
        <time>2013-12-21T13:43:54Z</time>
      </trkpt>
      <trkpt lat="44.45254" lon="0.94362">
        <ele>116.94</ele>
        <time>2013-12-21T13:44:05Z</time>
      </trkpt>
      <trkpt lat="44.45253" lon="0.94373">
        <ele>117.9</ele>
        <time>2013-12-21T13:44:10Z</time>
      </trkpt>
      <trkpt lat="44.45249" lon="0.94402">
        <ele>118.86</ele>
        <time>2013-12-21T13:44:22Z</time>
      </trkpt>
      <trkpt lat="44.45248" lon="0.94403">
        <ele>118.86</ele>
        <time>2013-12-21T13:44:23Z</time>
      </trkpt>
      <trkpt lat="44.45248" lon="0.94406">
        <ele>118.86</ele>
        <time>2013-12-21T13:44:25Z</time>
      </trkpt>
      <trkpt lat="44.45242" lon="0.94446">
        <ele>121.74</ele>
        <time>2013-12-21T13:44:37Z</time>
      </trkpt>
      <trkpt lat="44.4524" lon="0.94453">
        <ele>122.22</ele>
        <time>2013-12-21T13:44:39Z</time>
      </trkpt>
      <trkpt lat="44.45233" lon="0.94482">
        <ele>124.63</ele>
        <time>2013-12-21T13:44:49Z</time>
      </trkpt>
      <trkpt lat="44.45231" lon="0.94486">
        <ele>125.59</ele>
        <time>2013-12-21T13:44:51Z</time>
      </trkpt>
      <trkpt lat="44.4522" lon="0.9449">
        <ele>125.11</ele>
        <time>2013-12-21T13:44:55Z</time>
      </trkpt>
      <trkpt lat="44.45189" lon="0.94493">
        <ele>125.11</ele>
        <time>2013-12-21T13:45:07Z</time>
      </trkpt>
      <trkpt lat="44.45162" lon="0.94496">
        <ele>124.15</ele>
        <time>2013-12-21T13:45:17Z</time>
      </trkpt>
      <trkpt lat="44.45164" lon="0.94515">
        <ele>121.26</ele>
        <time>2013-12-21T13:45:27Z</time>
      </trkpt>
      <trkpt lat="44.45163" lon="0.94519">
        <ele>118.86</ele>
        <time>2013-12-21T13:45:41Z</time>
      </trkpt>
      <trkpt lat="44.45163" lon="0.94519">
        <ele>118.86</ele>
        <time>2013-12-21T13:45:56Z</time>
      </trkpt>
      <trkpt lat="44.45164" lon="0.94518">
        <ele>118.86</ele>
        <time>2013-12-21T13:46:28Z</time>
      </trkpt>
      <trkpt lat="44.45164" lon="0.94519">
        <ele>118.38</ele>
        <time>2013-12-21T13:46:48Z</time>
      </trkpt>
      <trkpt lat="44.45164" lon="0.94518">
        <ele>118.86</ele>
        <time>2013-12-21T13:47:14Z</time>
      </trkpt>
      <trkpt lat="44.45164" lon="0.94518">
        <ele>118.86</ele>
        <time>2013-12-21T13:47:32Z</time>
      </trkpt>
      <trkpt lat="44.45164" lon="0.94518">
        <ele>119.34</ele>
        <time>2013-12-21T13:47:53Z</time>
      </trkpt>
      <trkpt lat="44.45165" lon="0.94518">
        <ele>119.34</ele>
        <time>2013-12-21T13:48:18Z</time>
      </trkpt>
      <trkpt lat="44.45166" lon="0.94519">
        <ele>119.82</ele>
        <time>2013-12-21T13:48:36Z</time>
      </trkpt>
      <trkpt lat="44.45177" lon="0.94539">
        <ele>119.82</ele>
        <time>2013-12-21T13:48:43Z</time>
      </trkpt>
      <trkpt lat="44.45197" lon="0.94566">
        <ele>118.86</ele>
        <time>2013-12-21T13:48:50Z</time>
      </trkpt>
      <trkpt lat="44.45182" lon="0.946">
        <ele>118.38</ele>
        <time>2013-12-21T13:48:59Z</time>
      </trkpt>
      <trkpt lat="44.45151" lon="0.94645">
        <ele>118.38</ele>
        <time>2013-12-21T13:49:12Z</time>
      </trkpt>
      <trkpt lat="44.45141" lon="0.94659">
        <ele>117.9</ele>
        <time>2013-12-21T13:49:16Z</time>
      </trkpt>
      <trkpt lat="44.45104" lon="0.947">
        <ele>117.9</ele>
        <time>2013-12-21T13:49:28Z</time>
      </trkpt>
      <trkpt lat="44.45083" lon="0.94718">
        <ele>118.38</ele>
        <time>2013-12-21T13:49:36Z</time>
      </trkpt>
      <trkpt lat="44.45083" lon="0.94721">
        <ele>118.38</ele>
        <time>2013-12-21T13:49:37Z</time>
      </trkpt>
      <trkpt lat="44.45091" lon="0.94774">
        <ele>117.9</ele>
        <time>2013-12-21T13:49:49Z</time>
      </trkpt>
      <trkpt lat="44.45094" lon="0.94822">
        <ele>118.38</ele>
        <time>2013-12-21T13:50:01Z</time>
      </trkpt>
      <trkpt lat="44.45085" lon="0.94852">
        <ele>117.42</ele>
        <time>2013-12-21T13:50:07Z</time>
      </trkpt>
      <trkpt lat="44.45084" lon="0.94858">
        <ele>117.42</ele>
        <time>2013-12-21T13:50:08Z</time>
      </trkpt>
      <trkpt lat="44.45079" lon="0.94875">
        <ele>116.46</ele>
        <time>2013-12-21T13:50:11Z</time>
      </trkpt>
      <trkpt lat="44.45063" lon="0.94937">
        <ele>116.94</ele>
        <time>2013-12-21T13:50:24Z</time>
      </trkpt>
      <trkpt lat="44.45064" lon="0.94939">
        <ele>116.94</ele>
        <time>2013-12-21T13:50:25Z</time>
      </trkpt>
      <trkpt lat="44.45065" lon="0.94941">
        <ele>116.46</ele>
        <time>2013-12-21T13:50:26Z</time>
      </trkpt>
      <trkpt lat="44.45066" lon="0.94943">
        <ele>116.46</ele>
        <time>2013-12-21T13:50:28Z</time>
      </trkpt>
      <trkpt lat="44.45105" lon="0.9496">
        <ele>115.01</ele>
        <time>2013-12-21T13:50:39Z</time>
      </trkpt>
      <trkpt lat="44.45137" lon="0.94972">
        <ele>113.57</ele>
        <time>2013-12-21T13:50:47Z</time>
      </trkpt>
      <trkpt lat="44.4515" lon="0.94974">
        <ele>112.61</ele>
        <time>2013-12-21T13:50:50Z</time>
      </trkpt>
      <trkpt lat="44.45162" lon="0.94979">
        <ele>112.13</ele>
        <time>2013-12-21T13:50:53Z</time>
      </trkpt>
      <trkpt lat="44.45195" lon="0.94988">
        <ele>114.53</ele>
        <time>2013-12-21T13:51:02Z</time>
      </trkpt>
      <trkpt lat="44.45197" lon="0.94991">
        <ele>115.98</ele>
        <time>2013-12-21T13:51:04Z</time>
      </trkpt>
      <trkpt lat="44.45194" lon="0.9502">
        <ele>121.74</ele>
        <time>2013-12-21T13:51:17Z</time>
      </trkpt>
      <trkpt lat="44.45189" lon="0.9506">
        <ele>125.59</ele>
        <time>2013-12-21T13:51:27Z</time>
      </trkpt>
      <trkpt lat="44.45185" lon="0.95083">
        <ele>127.03</ele>
        <time>2013-12-21T13:51:33Z</time>
      </trkpt>
      <trkpt lat="44.45177" lon="0.95136">
        <ele>125.11</ele>
        <time>2013-12-21T13:51:46Z</time>
      </trkpt>
      <trkpt lat="44.4517" lon="0.95194">
        <ele>121.74</ele>
        <time>2013-12-21T13:51:58Z</time>
      </trkpt>
      <trkpt lat="44.4514" lon="0.95242">
        <ele>121.26</ele>
        <time>2013-12-21T13:52:09Z</time>
      </trkpt>
      <trkpt lat="44.45114" lon="0.95272">
        <ele>120.3</ele>
        <time>2013-12-21T13:52:16Z</time>
      </trkpt>
      <trkpt lat="44.45105" lon="0.95285">
        <ele>120.3</ele>
        <time>2013-12-21T13:52:19Z</time>
      </trkpt>
      <trkpt lat="44.45082" lon="0.95314">
        <ele>120.3</ele>
        <time>2013-12-21T13:52:26Z</time>
      </trkpt>
      <trkpt lat="44.45062" lon="0.95338">
        <ele>120.78</ele>
        <time>2013-12-21T13:52:32Z</time>
      </trkpt>
      <trkpt lat="44.45015" lon="0.95397">
        <ele>121.26</ele>
        <time>2013-12-21T13:52:49Z</time>
      </trkpt>
      <trkpt lat="44.45011" lon="0.95406">
        <ele>120.78</ele>
        <time>2013-12-21T13:52:52Z</time>
      </trkpt>
      <trkpt lat="44.4501" lon="0.9541">
        <ele>121.26</ele>
        <time>2013-12-21T13:53:04Z</time>
      </trkpt>
      <trkpt lat="44.45009" lon="0.9541">
        <ele>120.3</ele>
        <time>2013-12-21T13:53:28Z</time>
      </trkpt>
      <trkpt lat="44.45009" lon="0.95409">
        <ele>121.26</ele>
        <time>2013-12-21T13:54:00Z</time>
      </trkpt>
      <trkpt lat="44.4501" lon="0.95409">
        <ele>121.26</ele>
        <time>2013-12-21T13:54:24Z</time>
      </trkpt>
      <trkpt lat="44.45009" lon="0.95408">
        <ele>120.78</ele>
        <time>2013-12-21T13:54:44Z</time>
      </trkpt>
      <trkpt lat="44.45019" lon="0.95428">
        <ele>120.78</ele>
        <time>2013-12-21T13:54:59Z</time>
      </trkpt>
      <trkpt lat="44.45051" lon="0.9549">
        <ele>121.26</ele>
        <time>2013-12-21T13:55:16Z</time>
      </trkpt>
      <trkpt lat="44.45062" lon="0.95513">
        <ele>121.74</ele>
        <time>2013-12-21T13:55:25Z</time>
      </trkpt>
      <trkpt lat="44.45062" lon="0.95516">
        <ele>121.74</ele>
        <time>2013-12-21T13:55:26Z</time>
      </trkpt>
      <trkpt lat="44.4506" lon="0.95519">
        <ele>122.22</ele>
        <time>2013-12-21T13:55:27Z</time>
      </trkpt>
      <trkpt lat="44.45058" lon="0.95522">
        <ele>121.74</ele>
        <time>2013-12-21T13:55:28Z</time>
      </trkpt>
      <trkpt lat="44.45056" lon="0.95524">
        <ele>122.22</ele>
        <time>2013-12-21T13:55:29Z</time>
      </trkpt>
      <trkpt lat="44.45054" lon="0.95527">
        <ele>121.74</ele>
        <time>2013-12-21T13:55:30Z</time>
      </trkpt>
      <trkpt lat="44.45052" lon="0.95529">
        <ele>121.74</ele>
        <time>2013-12-21T13:55:31Z</time>
      </trkpt>
      <trkpt lat="44.45049" lon="0.95532">
        <ele>121.74</ele>
        <time>2013-12-21T13:55:32Z</time>
      </trkpt>
      <trkpt lat="44.45046" lon="0.95534">
        <ele>121.74</ele>
        <time>2013-12-21T13:55:33Z</time>
      </trkpt>
      <trkpt lat="44.45043" lon="0.95536">
        <ele>121.74</ele>
        <time>2013-12-21T13:55:34Z</time>
      </trkpt>
      <trkpt lat="44.45003" lon="0.9557">
        <ele>122.71</ele>
        <time>2013-12-21T13:55:46Z</time>
      </trkpt>
      <trkpt lat="44.44954" lon="0.95606">
        <ele>123.67</ele>
        <time>2013-12-21T13:55:58Z</time>
      </trkpt>
      <trkpt lat="44.44937" lon="0.95614">
        <ele>124.63</ele>
        <time>2013-12-21T13:56:02Z</time>
      </trkpt>
      <trkpt lat="44.44932" lon="0.95615">
        <ele>124.63</ele>
        <time>2013-12-21T13:56:03Z</time>
      </trkpt>
      <trkpt lat="44.44928" lon="0.95616">
        <ele>125.11</ele>
        <time>2013-12-21T13:56:04Z</time>
      </trkpt>
      <trkpt lat="44.44924" lon="0.95617">
        <ele>125.11</ele>
        <time>2013-12-21T13:56:05Z</time>
      </trkpt>
      <trkpt lat="44.4492" lon="0.9562">
        <ele>125.59</ele>
        <time>2013-12-21T13:56:06Z</time>
      </trkpt>
      <trkpt lat="44.44916" lon="0.95623">
        <ele>126.07</ele>
        <time>2013-12-21T13:56:07Z</time>
      </trkpt>
      <trkpt lat="44.44913" lon="0.95627">
        <ele>126.55</ele>
        <time>2013-12-21T13:56:08Z</time>
      </trkpt>
      <trkpt lat="44.4491" lon="0.95632">
        <ele>127.03</ele>
        <time>2013-12-21T13:56:09Z</time>
      </trkpt>
      <trkpt lat="44.44907" lon="0.95637">
        <ele>127.03</ele>
        <time>2013-12-21T13:56:10Z</time>
      </trkpt>
      <trkpt lat="44.44904" lon="0.95641">
        <ele>127.51</ele>
        <time>2013-12-21T13:56:11Z</time>
      </trkpt>
      <trkpt lat="44.44901" lon="0.95643">
        <ele>127.51</ele>
        <time>2013-12-21T13:56:12Z</time>
      </trkpt>
      <trkpt lat="44.44898" lon="0.95645">
        <ele>127.99</ele>
        <time>2013-12-21T13:56:13Z</time>
      </trkpt>
      <trkpt lat="44.44895" lon="0.95644">
        <ele>127.99</ele>
        <time>2013-12-21T13:56:14Z</time>
      </trkpt>
      <trkpt lat="44.44891" lon="0.95643">
        <ele>127.99</ele>
        <time>2013-12-21T13:56:15Z</time>
      </trkpt>
      <trkpt lat="44.44888" lon="0.95641">
        <ele>127.99</ele>
        <time>2013-12-21T13:56:16Z</time>
      </trkpt>
      <trkpt lat="44.44884" lon="0.95639">
        <ele>127.99</ele>
        <time>2013-12-21T13:56:17Z</time>
      </trkpt>
      <trkpt lat="44.4488" lon="0.95636">
        <ele>128.47</ele>
        <time>2013-12-21T13:56:18Z</time>
      </trkpt>
      <trkpt lat="44.44876" lon="0.95634">
        <ele>128.47</ele>
        <time>2013-12-21T13:56:19Z</time>
      </trkpt>
      <trkpt lat="44.44856" lon="0.95626">
        <ele>129.43</ele>
        <time>2013-12-21T13:56:24Z</time>
      </trkpt>
      <trkpt lat="44.4485" lon="0.95622">
        <ele>129.43</ele>
        <time>2013-12-21T13:56:26Z</time>
      </trkpt>
      <trkpt lat="44.44838" lon="0.95614">
        <ele>129.43</ele>
        <time>2013-12-21T13:56:29Z</time>
      </trkpt>
      <trkpt lat="44.44802" lon="0.95597">
        <ele>128.95</ele>
        <time>2013-12-21T13:56:38Z</time>
      </trkpt>
      <trkpt lat="44.4474" lon="0.95594">
        <ele>127.99</ele>
        <time>2013-12-21T13:56:52Z</time>
      </trkpt>
      <trkpt lat="44.44659" lon="0.95584">
        <ele>127.51</ele>
        <time>2013-12-21T13:57:11Z</time>
      </trkpt>
      <trkpt lat="44.44634" lon="0.9558">
        <ele>127.99</ele>
        <time>2013-12-21T13:57:17Z</time>
      </trkpt>
      <trkpt lat="44.4461" lon="0.95578">
        <ele>127.03</ele>
        <time>2013-12-21T13:57:23Z</time>
      </trkpt>
      <trkpt lat="44.44593" lon="0.95573">
        <ele>126.07</ele>
        <time>2013-12-21T13:57:27Z</time>
      </trkpt>
      <trkpt lat="44.44574" lon="0.95574">
        <ele>125.11</ele>
        <time>2013-12-21T13:57:31Z</time>
      </trkpt>
      <trkpt lat="44.44512" lon="0.95611">
        <ele>124.15</ele>
        <time>2013-12-21T13:57:44Z</time>
      </trkpt>
      <trkpt lat="44.44483" lon="0.9564">
        <ele>123.67</ele>
        <time>2013-12-21T13:57:51Z</time>
      </trkpt>
      <trkpt lat="44.44435" lon="0.95693">
        <ele>124.15</ele>
        <time>2013-12-21T13:58:07Z</time>
      </trkpt>
      <trkpt lat="44.44427" lon="0.95696">
        <ele>123.67</ele>
        <time>2013-12-21T13:58:17Z</time>
      </trkpt>
      <trkpt lat="44.44428" lon="0.95697">
        <ele>126.07</ele>
        <time>2013-12-21T13:58:44Z</time>
      </trkpt>
      <trkpt lat="44.44431" lon="0.95696">
        <ele>127.03</ele>
        <time>2013-12-21T13:59:08Z</time>
      </trkpt>
      <trkpt lat="44.4443" lon="0.95695">
        <ele>126.55</ele>
        <time>2013-12-21T13:59:23Z</time>
      </trkpt>
      <trkpt lat="44.4443" lon="0.95694">
        <ele>127.51</ele>
        <time>2013-12-21T13:59:42Z</time>
      </trkpt>
      <trkpt lat="44.4443" lon="0.95694">
        <ele>127.51</ele>
        <time>2013-12-21T14:00:12Z</time>
      </trkpt>
      <trkpt lat="44.4443" lon="0.95694">
        <ele>127.03</ele>
        <time>2013-12-21T14:00:34Z</time>
      </trkpt>
      <trkpt lat="44.4443" lon="0.95694">
        <ele>126.55</ele>
        <time>2013-12-21T14:00:54Z</time>
      </trkpt>
      <trkpt lat="44.44428" lon="0.95692">
        <ele>126.07</ele>
        <time>2013-12-21T14:01:00Z</time>
      </trkpt>
      <trkpt lat="44.44427" lon="0.95689">
        <ele>126.07</ele>
        <time>2013-12-21T14:01:01Z</time>
      </trkpt>
      <trkpt lat="44.44423" lon="0.95676">
        <ele>125.11</ele>
        <time>2013-12-21T14:01:04Z</time>
      </trkpt>
      <trkpt lat="44.4442" lon="0.9567">
        <ele>125.11</ele>
        <time>2013-12-21T14:01:05Z</time>
      </trkpt>
      <trkpt lat="44.44385" lon="0.95581">
        <ele>122.22</ele>
        <time>2013-12-21T14:01:16Z</time>
      </trkpt>
      <trkpt lat="44.44315" lon="0.95402">
        <ele>115.01</ele>
        <time>2013-12-21T14:01:35Z</time>
      </trkpt>
      <trkpt lat="44.44312" lon="0.95394">
        <ele>115.01</ele>
        <time>2013-12-21T14:01:36Z</time>
      </trkpt>
      <trkpt lat="44.44311" lon="0.95386">
        <ele>114.53</ele>
        <time>2013-12-21T14:01:37Z</time>
      </trkpt>
      <trkpt lat="44.44312" lon="0.95377">
        <ele>114.05</ele>
        <time>2013-12-21T14:01:38Z</time>
      </trkpt>
      <trkpt lat="44.44316" lon="0.9537">
        <ele>113.57</ele>
        <time>2013-12-21T14:01:39Z</time>
      </trkpt>
      <trkpt lat="44.44321" lon="0.95364">
        <ele>113.57</ele>
        <time>2013-12-21T14:01:40Z</time>
      </trkpt>
      <trkpt lat="44.44326" lon="0.95359">
        <ele>113.09</ele>
        <time>2013-12-21T14:01:41Z</time>
      </trkpt>
      <trkpt lat="44.44332" lon="0.95353">
        <ele>113.09</ele>
        <time>2013-12-21T14:01:42Z</time>
      </trkpt>
      <trkpt lat="44.44363" lon="0.95308">
        <ele>112.13</ele>
        <time>2013-12-21T14:01:49Z</time>
      </trkpt>
      <trkpt lat="44.44364" lon="0.95301">
        <ele>112.13</ele>
        <time>2013-12-21T14:01:50Z</time>
      </trkpt>
      <trkpt lat="44.44363" lon="0.9528">
        <ele>110.69</ele>
        <time>2013-12-21T14:01:53Z</time>
      </trkpt>
      <trkpt lat="44.44365" lon="0.95274">
        <ele>110.69</ele>
        <time>2013-12-21T14:01:54Z</time>
      </trkpt>
      <trkpt lat="44.44366" lon="0.9527">
        <ele>110.21</ele>
        <time>2013-12-21T14:01:55Z</time>
      </trkpt>
      <trkpt lat="44.44368" lon="0.95255">
        <ele>109.25</ele>
        <time>2013-12-21T14:01:58Z</time>
      </trkpt>
      <trkpt lat="44.4437" lon="0.95237">
        <ele>108.29</ele>
        <time>2013-12-21T14:02:01Z</time>
      </trkpt>
      <trkpt lat="44.44364" lon="0.95193">
        <ele>105.88</ele>
        <time>2013-12-21T14:02:09Z</time>
      </trkpt>
      <trkpt lat="44.44358" lon="0.95188">
        <ele>104.92</ele>
        <time>2013-12-21T14:02:13Z</time>
      </trkpt>
      <trkpt lat="44.44352" lon="0.95188">
        <ele>105.4</ele>
        <time>2013-12-21T14:02:17Z</time>
      </trkpt>
      <trkpt lat="44.44336" lon="0.95203">
        <ele>104.92</ele>
        <time>2013-12-21T14:02:25Z</time>
      </trkpt>
      <trkpt lat="44.44328" lon="0.95198">
        <ele>104.92</ele>
        <time>2013-12-21T14:02:29Z</time>
      </trkpt>
      <trkpt lat="44.44296" lon="0.95133">
        <ele>103.48</ele>
        <time>2013-12-21T14:02:44Z</time>
      </trkpt>
      <trkpt lat="44.44287" lon="0.95115">
        <ele>103</ele>
        <time>2013-12-21T14:02:48Z</time>
      </trkpt>
      <trkpt lat="44.44258" lon="0.95058">
        <ele>103</ele>
        <time>2013-12-21T14:03:01Z</time>
      </trkpt>
      <trkpt lat="44.44237" lon="0.95023">
        <ele>102.04</ele>
        <time>2013-12-21T14:03:11Z</time>
      </trkpt>
      <trkpt lat="44.44229" lon="0.95027">
        <ele>101.56</ele>
        <time>2013-12-21T14:03:20Z</time>
      </trkpt>
      <trkpt lat="44.44225" lon="0.95035">
        <ele>102.52</ele>
        <time>2013-12-21T14:03:25Z</time>
      </trkpt>
      <trkpt lat="44.44205" lon="0.95052">
        <ele>103.96</ele>
        <time>2013-12-21T14:03:37Z</time>
      </trkpt>
      <trkpt lat="44.4419" lon="0.95066">
        <ele>103.96</ele>
        <time>2013-12-21T14:03:44Z</time>
      </trkpt>
      <trkpt lat="44.4418" lon="0.95073">
        <ele>104.92</ele>
        <time>2013-12-21T14:03:54Z</time>
      </trkpt>
      <trkpt lat="44.44178" lon="0.95075">
        <ele>106.84</ele>
        <time>2013-12-21T14:04:17Z</time>
      </trkpt>
      <trkpt lat="44.44179" lon="0.95076">
        <ele>107.81</ele>
        <time>2013-12-21T14:04:40Z</time>
      </trkpt>
      <trkpt lat="44.44179" lon="0.95076">
        <ele>108.77</ele>
        <time>2013-12-21T14:05:02Z</time>
      </trkpt>
      <trkpt lat="44.44179" lon="0.95075">
        <ele>108.77</ele>
        <time>2013-12-21T14:05:26Z</time>
      </trkpt>
      <trkpt lat="44.44179" lon="0.95075">
        <ele>110.21</ele>
        <time>2013-12-21T14:05:49Z</time>
      </trkpt>
      <trkpt lat="44.44178" lon="0.95076">
        <ele>109.73</ele>
        <time>2013-12-21T14:06:15Z</time>
      </trkpt>
      <trkpt lat="44.44177" lon="0.95076">
        <ele>108.77</ele>
        <time>2013-12-21T14:06:38Z</time>
      </trkpt>
      <trkpt lat="44.44152" lon="0.951">
        <ele>110.21</ele>
        <time>2013-12-21T14:06:47Z</time>
      </trkpt>
      <trkpt lat="44.44141" lon="0.95115">
        <ele>110.21</ele>
        <time>2013-12-21T14:06:51Z</time>
      </trkpt>
      <trkpt lat="44.44141" lon="0.95139">
        <ele>109.25</ele>
        <time>2013-12-21T14:06:56Z</time>
      </trkpt>
      <trkpt lat="44.44133" lon="0.95155">
        <ele>107.81</ele>
        <time>2013-12-21T14:07:00Z</time>
      </trkpt>
      <trkpt lat="44.4408" lon="0.95186">
        <ele>103</ele>
        <time>2013-12-21T14:07:14Z</time>
      </trkpt>
      <trkpt lat="44.4404" lon="0.95204">
        <ele>104.92</ele>
        <time>2013-12-21T14:07:26Z</time>
      </trkpt>
      <trkpt lat="44.44035" lon="0.95204">
        <ele>104.44</ele>
        <time>2013-12-21T14:07:28Z</time>
      </trkpt>
      <trkpt lat="44.44028" lon="0.95204">
        <ele>104.44</ele>
        <time>2013-12-21T14:07:32Z</time>
      </trkpt>
      <trkpt lat="44.44021" lon="0.95207">
        <ele>104.92</ele>
        <time>2013-12-21T14:07:37Z</time>
      </trkpt>
      <trkpt lat="44.44003" lon="0.95213">
        <ele>103.96</ele>
        <time>2013-12-21T14:07:48Z</time>
      </trkpt>
      <trkpt lat="44.43989" lon="0.95219">
        <ele>102.04</ele>
        <time>2013-12-21T14:07:52Z</time>
      </trkpt>
      <trkpt lat="44.4398" lon="0.95212">
        <ele>101.08</ele>
        <time>2013-12-21T14:07:56Z</time>
      </trkpt>
      <trkpt lat="44.43948" lon="0.95189">
        <ele>98.19</ele>
        <time>2013-12-21T14:08:07Z</time>
      </trkpt>
      <trkpt lat="44.43919" lon="0.95172">
        <ele>96.27</ele>
        <time>2013-12-21T14:08:18Z</time>
      </trkpt>
      <trkpt lat="44.43909" lon="0.95131">
        <ele>94.83</ele>
        <time>2013-12-21T14:08:28Z</time>
      </trkpt>
      <trkpt lat="44.43903" lon="0.95087">
        <ele>94.83</ele>
        <time>2013-12-21T14:08:39Z</time>
      </trkpt>
      <trkpt lat="44.43911" lon="0.95052">
        <ele>95.31</ele>
        <time>2013-12-21T14:08:49Z</time>
      </trkpt>
      <trkpt lat="44.43917" lon="0.95034">
        <ele>94.83</ele>
        <time>2013-12-21T14:08:56Z</time>
      </trkpt>
      <trkpt lat="44.43941" lon="0.95018">
        <ele>95.31</ele>
        <time>2013-12-21T14:09:08Z</time>
      </trkpt>
      <trkpt lat="44.43951" lon="0.95014">
        <ele>95.79</ele>
        <time>2013-12-21T14:09:12Z</time>
      </trkpt>
      <trkpt lat="44.43959" lon="0.9501">
        <ele>95.79</ele>
        <time>2013-12-21T14:09:15Z</time>
      </trkpt>
      <trkpt lat="44.43967" lon="0.95011">
        <ele>96.27</ele>
        <time>2013-12-21T14:09:19Z</time>
      </trkpt>
      <trkpt lat="44.43987" lon="0.95006">
        <ele>96.27</ele>
        <time>2013-12-21T14:09:28Z</time>
      </trkpt>
      <trkpt lat="44.44023" lon="0.94996">
        <ele>94.83</ele>
        <time>2013-12-21T14:09:42Z</time>
      </trkpt>
      <trkpt lat="44.44057" lon="0.94989">
        <ele>95.79</ele>
        <time>2013-12-21T14:09:55Z</time>
      </trkpt>
      <trkpt lat="44.44071" lon="0.94993">
        <ele>97.23</ele>
        <time>2013-12-21T14:10:00Z</time>
      </trkpt>
      <trkpt lat="44.4408" lon="0.94975">
        <ele>99.63</ele>
        <time>2013-12-21T14:10:07Z</time>
      </trkpt>
      <trkpt lat="44.44095" lon="0.94945">
        <ele>98.19</ele>
        <time>2013-12-21T14:10:17Z</time>
      </trkpt>
      <trkpt lat="44.44135" lon="0.94935">
        <ele>95.79</ele>
        <time>2013-12-21T14:10:30Z</time>
      </trkpt>
      <trkpt lat="44.44144" lon="0.94933">
        <ele>95.79</ele>
        <time>2013-12-21T14:10:34Z</time>
      </trkpt>
      <trkpt lat="44.44143" lon="0.94913">
        <ele>95.31</ele>
        <time>2013-12-21T14:10:40Z</time>
      </trkpt>
      <trkpt lat="44.44121" lon="0.94876">
        <ele>91.94</ele>
        <time>2013-12-21T14:10:53Z</time>
      </trkpt>
      <trkpt lat="44.44098" lon="0.94838">
        <ele>93.87</ele>
        <time>2013-12-21T14:11:05Z</time>
      </trkpt>
      <trkpt lat="44.44075" lon="0.948">
        <ele>94.35</ele>
        <time>2013-12-21T14:11:17Z</time>
      </trkpt>
      <trkpt lat="44.44056" lon="0.94769">
        <ele>95.79</ele>
        <time>2013-12-21T14:11:28Z</time>
      </trkpt>
      <trkpt lat="44.44035" lon="0.94736">
        <ele>98.67</ele>
        <time>2013-12-21T14:11:40Z</time>
      </trkpt>
      <trkpt lat="44.44013" lon="0.94704">
        <ele>102.52</ele>
        <time>2013-12-21T14:11:52Z</time>
      </trkpt>
      <trkpt lat="44.43992" lon="0.94676">
        <ele>104.92</ele>
        <time>2013-12-21T14:12:04Z</time>
      </trkpt>
      <trkpt lat="44.43984" lon="0.9466">
        <ele>105.4</ele>
        <time>2013-12-21T14:12:11Z</time>
      </trkpt>
      <trkpt lat="44.43981" lon="0.94661">
        <ele>105.4</ele>
        <time>2013-12-21T14:12:13Z</time>
      </trkpt>
      <trkpt lat="44.4398" lon="0.94661">
        <ele>105.4</ele>
        <time>2013-12-21T14:12:14Z</time>
      </trkpt>
      <trkpt lat="44.43978" lon="0.94661">
        <ele>105.4</ele>
        <time>2013-12-21T14:12:15Z</time>
      </trkpt>
      <trkpt lat="44.43977" lon="0.94661">
        <ele>105.4</ele>
        <time>2013-12-21T14:12:16Z</time>
      </trkpt>
      <trkpt lat="44.43977" lon="0.94659">
        <ele>105.4</ele>
        <time>2013-12-21T14:12:17Z</time>
      </trkpt>
      <trkpt lat="44.43976" lon="0.94658">
        <ele>105.4</ele>
        <time>2013-12-21T14:12:18Z</time>
      </trkpt>
      <trkpt lat="44.43975" lon="0.94656">
        <ele>105.4</ele>
        <time>2013-12-21T14:12:19Z</time>
      </trkpt>
      <trkpt lat="44.43974" lon="0.94655">
        <ele>105.88</ele>
        <time>2013-12-21T14:12:20Z</time>
      </trkpt>
      <trkpt lat="44.43972" lon="0.94655">
        <ele>105.88</ele>
        <time>2013-12-21T14:12:21Z</time>
      </trkpt>
      <trkpt lat="44.43971" lon="0.94654">
        <ele>105.88</ele>
        <time>2013-12-21T14:12:22Z</time>
      </trkpt>
      <trkpt lat="44.4397" lon="0.94653">
        <ele>105.88</ele>
        <time>2013-12-21T14:12:23Z</time>
      </trkpt>
      <trkpt lat="44.43964" lon="0.94646">
        <ele>105.88</ele>
        <time>2013-12-21T14:12:28Z</time>
      </trkpt>
      <trkpt lat="44.43963" lon="0.94646">
        <ele>106.36</ele>
        <time>2013-12-21T14:12:29Z</time>
      </trkpt>
      <trkpt lat="44.43961" lon="0.94645">
        <ele>106.36</ele>
        <time>2013-12-21T14:12:30Z</time>
      </trkpt>
      <trkpt lat="44.4396" lon="0.94644">
        <ele>106.36</ele>
        <time>2013-12-21T14:12:31Z</time>
      </trkpt>
      <trkpt lat="44.43959" lon="0.94641">
        <ele>106.36</ele>
        <time>2013-12-21T14:12:32Z</time>
      </trkpt>
      <trkpt lat="44.43958" lon="0.9464">
        <ele>106.36</ele>
        <time>2013-12-21T14:12:33Z</time>
      </trkpt>
      <trkpt lat="44.43956" lon="0.94638">
        <ele>106.36</ele>
        <time>2013-12-21T14:12:34Z</time>
      </trkpt>
      <trkpt lat="44.43955" lon="0.94637">
        <ele>106.36</ele>
        <time>2013-12-21T14:12:35Z</time>
      </trkpt>
      <trkpt lat="44.43953" lon="0.94636">
        <ele>106.36</ele>
        <time>2013-12-21T14:12:36Z</time>
      </trkpt>
      <trkpt lat="44.43951" lon="0.94634">
        <ele>106.36</ele>
        <time>2013-12-21T14:12:38Z</time>
      </trkpt>
      <trkpt lat="44.43949" lon="0.94632">
        <ele>106.36</ele>
        <time>2013-12-21T14:12:39Z</time>
      </trkpt>
      <trkpt lat="44.43948" lon="0.94631">
        <ele>106.36</ele>
        <time>2013-12-21T14:12:40Z</time>
      </trkpt>
      <trkpt lat="44.43942" lon="0.94626">
        <ele>106.36</ele>
        <time>2013-12-21T14:12:45Z</time>
      </trkpt>
      <trkpt lat="44.43941" lon="0.94625">
        <ele>106.36</ele>
        <time>2013-12-21T14:12:46Z</time>
      </trkpt>
      <trkpt lat="44.43939" lon="0.94625">
        <ele>106.84</ele>
        <time>2013-12-21T14:12:47Z</time>
      </trkpt>
      <trkpt lat="44.43938" lon="0.94624">
        <ele>106.84</ele>
        <time>2013-12-21T14:12:48Z</time>
      </trkpt>
      <trkpt lat="44.43937" lon="0.94622">
        <ele>106.84</ele>
        <time>2013-12-21T14:12:49Z</time>
      </trkpt>
      <trkpt lat="44.43935" lon="0.94621">
        <ele>106.84</ele>
        <time>2013-12-21T14:12:50Z</time>
      </trkpt>
      <trkpt lat="44.43934" lon="0.94619">
        <ele>107.32</ele>
        <time>2013-12-21T14:12:51Z</time>
      </trkpt>
      <trkpt lat="44.43933" lon="0.94618">
        <ele>106.84</ele>
        <time>2013-12-21T14:12:52Z</time>
      </trkpt>
      <trkpt lat="44.43931" lon="0.94617">
        <ele>106.84</ele>
        <time>2013-12-21T14:12:53Z</time>
      </trkpt>
      <trkpt lat="44.4393" lon="0.94616">
        <ele>106.84</ele>
        <time>2013-12-21T14:12:54Z</time>
      </trkpt>
      <trkpt lat="44.43928" lon="0.94614">
        <ele>106.84</ele>
        <time>2013-12-21T14:12:55Z</time>
      </trkpt>
      <trkpt lat="44.43918" lon="0.94606">
        <ele>108.29</ele>
        <time>2013-12-21T14:13:02Z</time>
      </trkpt>
      <trkpt lat="44.43916" lon="0.94605">
        <ele>108.29</ele>
        <time>2013-12-21T14:13:03Z</time>
      </trkpt>
      <trkpt lat="44.43915" lon="0.94604">
        <ele>108.77</ele>
        <time>2013-12-21T14:13:04Z</time>
      </trkpt>
      <trkpt lat="44.4391" lon="0.94598">
        <ele>108.77</ele>
        <time>2013-12-21T14:13:07Z</time>
      </trkpt>
      <trkpt lat="44.43908" lon="0.94596">
        <ele>109.25</ele>
        <time>2013-12-21T14:13:08Z</time>
      </trkpt>
      <trkpt lat="44.43906" lon="0.94594">
        <ele>109.73</ele>
        <time>2013-12-21T14:13:09Z</time>
      </trkpt>
      <trkpt lat="44.43878" lon="0.9457">
        <ele>113.09</ele>
        <time>2013-12-21T14:13:21Z</time>
      </trkpt>
      <trkpt lat="44.43847" lon="0.94542">
        <ele>115.5</ele>
        <time>2013-12-21T14:13:32Z</time>
      </trkpt>
      <trkpt lat="44.43825" lon="0.94519">
        <ele>115.98</ele>
        <time>2013-12-21T14:13:45Z</time>
      </trkpt>
      <trkpt lat="44.43824" lon="0.94519">
        <ele>115.98</ele>
        <time>2013-12-21T14:13:57Z</time>
      </trkpt>
      <trkpt lat="44.43824" lon="0.94521">
        <ele>115.98</ele>
        <time>2013-12-21T14:14:11Z</time>
      </trkpt>
      <trkpt lat="44.43823" lon="0.9452">
        <ele>115.5</ele>
        <time>2013-12-21T14:14:36Z</time>
      </trkpt>
      <trkpt lat="44.43822" lon="0.94523">
        <ele>115.01</ele>
        <time>2013-12-21T14:14:54Z</time>
      </trkpt>
      <trkpt lat="44.43823" lon="0.94523">
        <ele>114.53</ele>
        <time>2013-12-21T14:15:10Z</time>
      </trkpt>
      <trkpt lat="44.43822" lon="0.94522">
        <ele>114.05</ele>
        <time>2013-12-21T14:15:30Z</time>
      </trkpt>
      <trkpt lat="44.43822" lon="0.94521">
        <ele>114.05</ele>
        <time>2013-12-21T14:15:56Z</time>
      </trkpt>
      <trkpt lat="44.43823" lon="0.94521">
        <ele>114.05</ele>
        <time>2013-12-21T14:16:19Z</time>
      </trkpt>
      <trkpt lat="44.43822" lon="0.94521">
        <ele>114.05</ele>
        <time>2013-12-21T14:16:41Z</time>
      </trkpt>
      <trkpt lat="44.43822" lon="0.94521">
        <ele>113.57</ele>
        <time>2013-12-21T14:17:11Z</time>
      </trkpt>
      <trkpt lat="44.43822" lon="0.94521">
        <ele>113.57</ele>
        <time>2013-12-21T14:17:34Z</time>
      </trkpt>
      <trkpt lat="44.43824" lon="0.94517">
        <ele>114.05</ele>
        <time>2013-12-21T14:17:48Z</time>
      </trkpt>
      <trkpt lat="44.43824" lon="0.94518">
        <ele>114.05</ele>
        <time>2013-12-21T14:18:09Z</time>
      </trkpt>
      <trkpt lat="44.43824" lon="0.94518">
        <ele>114.53</ele>
        <time>2013-12-21T14:18:28Z</time>
      </trkpt>
      <trkpt lat="44.43825" lon="0.94517">
        <ele>115.01</ele>
        <time>2013-12-21T14:18:56Z</time>
      </trkpt>
      <trkpt lat="44.43824" lon="0.94517">
        <ele>115.5</ele>
        <time>2013-12-21T14:19:21Z</time>
      </trkpt>
      <trkpt lat="44.43823" lon="0.94517">
        <ele>115.5</ele>
        <time>2013-12-21T14:19:40Z</time>
      </trkpt>
      <trkpt lat="44.43822" lon="0.94516">
        <ele>115.98</ele>
        <time>2013-12-21T14:20:09Z</time>
      </trkpt>
      <trkpt lat="44.43823" lon="0.94516">
        <ele>116.46</ele>
        <time>2013-12-21T14:20:31Z</time>
      </trkpt>
      <trkpt lat="44.43824" lon="0.94515">
        <ele>116.46</ele>
        <time>2013-12-21T14:20:40Z</time>
      </trkpt>
      <trkpt lat="44.43825" lon="0.94512">
        <ele>116.46</ele>
        <time>2013-12-21T14:20:41Z</time>
      </trkpt>
      <trkpt lat="44.43826" lon="0.94509">
        <ele>116.46</ele>
        <time>2013-12-21T14:20:42Z</time>
      </trkpt>
      <trkpt lat="44.43849" lon="0.94442">
        <ele>115.98</ele>
        <time>2013-12-21T14:20:51Z</time>
      </trkpt>
      <trkpt lat="44.43856" lon="0.9438">
        <ele>117.42</ele>
        <time>2013-12-21T14:20:59Z</time>
      </trkpt>
      <trkpt lat="44.43858" lon="0.94373">
        <ele>117.42</ele>
        <time>2013-12-21T14:21:00Z</time>
      </trkpt>
      <trkpt lat="44.43862" lon="0.94362">
        <ele>117.9</ele>
        <time>2013-12-21T14:21:02Z</time>
      </trkpt>
      <trkpt lat="44.43865" lon="0.94356">
        <ele>118.38</ele>
        <time>2013-12-21T14:21:03Z</time>
      </trkpt>
      <trkpt lat="44.43868" lon="0.94351">
        <ele>118.38</ele>
        <time>2013-12-21T14:21:04Z</time>
      </trkpt>
      <trkpt lat="44.43887" lon="0.94322">
        <ele>117.9</ele>
        <time>2013-12-21T14:21:10Z</time>
      </trkpt>
      <trkpt lat="44.43895" lon="0.94308">
        <ele>117.9</ele>
        <time>2013-12-21T14:21:13Z</time>
      </trkpt>
      <trkpt lat="44.43901" lon="0.94291">
        <ele>117.42</ele>
        <time>2013-12-21T14:21:22Z</time>
      </trkpt>
      <trkpt lat="44.43901" lon="0.94291">
        <ele>117.42</ele>
        <time>2013-12-21T14:21:40Z</time>
      </trkpt>
      <trkpt lat="44.43901" lon="0.94291">
        <ele>117.9</ele>
        <time>2013-12-21T14:22:06Z</time>
      </trkpt>
      <trkpt lat="44.43907" lon="0.94276">
        <ele>117.42</ele>
        <time>2013-12-21T14:22:26Z</time>
      </trkpt>
      <trkpt lat="44.43914" lon="0.94257">
        <ele>117.42</ele>
        <time>2013-12-21T14:22:29Z</time>
      </trkpt>
      <trkpt lat="44.43917" lon="0.9425">
        <ele>116.94</ele>
        <time>2013-12-21T14:22:30Z</time>
      </trkpt>
      <trkpt lat="44.4392" lon="0.94244">
        <ele>116.94</ele>
        <time>2013-12-21T14:22:31Z</time>
      </trkpt>
      <trkpt lat="44.43924" lon="0.94237">
        <ele>116.94</ele>
        <time>2013-12-21T14:22:32Z</time>
      </trkpt>
      <trkpt lat="44.43927" lon="0.94231">
        <ele>116.94</ele>
        <time>2013-12-21T14:22:33Z</time>
      </trkpt>
      <trkpt lat="44.43931" lon="0.94225">
        <ele>116.94</ele>
        <time>2013-12-21T14:22:34Z</time>
      </trkpt>
      <trkpt lat="44.43974" lon="0.94166">
        <ele>116.46</ele>
        <time>2013-12-21T14:22:47Z</time>
      </trkpt>
      <trkpt lat="44.43963" lon="0.94147">
        <ele>116.46</ele>
        <time>2013-12-21T14:22:52Z</time>
      </trkpt>
      <trkpt lat="44.43957" lon="0.94138">
        <ele>116.46</ele>
        <time>2013-12-21T14:22:54Z</time>
      </trkpt>
      <trkpt lat="44.43942" lon="0.94121">
        <ele>116.46</ele>
        <time>2013-12-21T14:22:58Z</time>
      </trkpt>
      <trkpt lat="44.43901" lon="0.94069">
        <ele>116.46</ele>
        <time>2013-12-21T14:23:09Z</time>
      </trkpt>
      <trkpt lat="44.43884" lon="0.9405">
        <ele>117.42</ele>
        <time>2013-12-21T14:23:13Z</time>
      </trkpt>
      <trkpt lat="44.43852" lon="0.94013">
        <ele>117.9</ele>
        <time>2013-12-21T14:23:21Z</time>
      </trkpt>
      <trkpt lat="44.43827" lon="0.93983">
        <ele>117.42</ele>
        <time>2013-12-21T14:23:30Z</time>
      </trkpt>
      <trkpt lat="44.438" lon="0.93943">
        <ele>115.5</ele>
        <time>2013-12-21T14:23:40Z</time>
      </trkpt>
      <trkpt lat="44.4376" lon="0.93895">
        <ele>113.09</ele>
        <time>2013-12-21T14:23:55Z</time>
      </trkpt>
      <trkpt lat="44.43757" lon="0.93897">
        <ele>113.09</ele>
        <time>2013-12-21T14:23:57Z</time>
      </trkpt>
      <trkpt lat="44.43744" lon="0.93911">
        <ele>111.65</ele>
        <time>2013-12-21T14:24:04Z</time>
      </trkpt>
      <trkpt lat="44.43742" lon="0.93909">
        <ele>111.17</ele>
        <time>2013-12-21T14:24:12Z</time>
      </trkpt>
      <trkpt lat="44.4374" lon="0.93909">
        <ele>112.13</ele>
        <time>2013-12-21T14:24:33Z</time>
      </trkpt>
      <trkpt lat="44.4374" lon="0.93907">
        <ele>112.61</ele>
        <time>2013-12-21T14:24:58Z</time>
      </trkpt>
      <trkpt lat="44.43738" lon="0.93907">
        <ele>113.57</ele>
        <time>2013-12-21T14:25:17Z</time>
      </trkpt>
      <trkpt lat="44.43723" lon="0.93885">
        <ele>114.05</ele>
        <time>2013-12-21T14:25:26Z</time>
      </trkpt>
      <trkpt lat="44.43684" lon="0.93831">
        <ele>115.98</ele>
        <time>2013-12-21T14:25:40Z</time>
      </trkpt>
      <trkpt lat="44.43652" lon="0.93789">
        <ele>114.05</ele>
        <time>2013-12-21T14:25:51Z</time>
      </trkpt>
      <trkpt lat="44.43632" lon="0.93804">
        <ele>111.17</ele>
        <time>2013-12-21T14:26:00Z</time>
      </trkpt>
      <trkpt lat="44.43598" lon="0.9382">
        <ele>102.04</ele>
        <time>2013-12-21T14:26:11Z</time>
      </trkpt>
      <trkpt lat="44.43587" lon="0.93823">
        <ele>98.19</ele>
        <time>2013-12-21T14:26:14Z</time>
      </trkpt>
      <trkpt lat="44.43573" lon="0.93839">
        <ele>96.27</ele>
        <time>2013-12-21T14:26:23Z</time>
      </trkpt>
      <trkpt lat="44.43573" lon="0.93843">
        <ele>96.75</ele>
        <time>2013-12-21T14:26:37Z</time>
      </trkpt>
      <trkpt lat="44.43571" lon="0.93844">
        <ele>95.79</ele>
        <time>2013-12-21T14:26:52Z</time>
      </trkpt>
      <trkpt lat="44.43571" lon="0.93844">
        <ele>97.71</ele>
        <time>2013-12-21T14:27:20Z</time>
      </trkpt>
      <trkpt lat="44.43571" lon="0.93844">
        <ele>98.19</ele>
        <time>2013-12-21T14:27:41Z</time>
      </trkpt>
      <trkpt lat="44.4357" lon="0.93845">
        <ele>97.23</ele>
        <time>2013-12-21T14:28:09Z</time>
      </trkpt>
      <trkpt lat="44.43569" lon="0.93845">
        <ele>97.71</ele>
        <time>2013-12-21T14:28:35Z</time>
      </trkpt>
      <trkpt lat="44.4357" lon="0.93845">
        <ele>98.19</ele>
        <time>2013-12-21T14:28:58Z</time>
      </trkpt>
      <trkpt lat="44.4357" lon="0.93845">
        <ele>97.23</ele>
        <time>2013-12-21T14:29:23Z</time>
      </trkpt>
      <trkpt lat="44.43569" lon="0.93845">
        <ele>96.75</ele>
        <time>2013-12-21T14:29:51Z</time>
      </trkpt>
      <trkpt lat="44.43569" lon="0.93845">
        <ele>96.75</ele>
        <time>2013-12-21T14:30:15Z</time>
      </trkpt>
      <trkpt lat="44.43568" lon="0.93843">
        <ele>95.79</ele>
        <time>2013-12-21T14:30:38Z</time>
      </trkpt>
      <trkpt lat="44.4357" lon="0.93844">
        <ele>97.23</ele>
        <time>2013-12-21T14:31:03Z</time>
      </trkpt>
      <trkpt lat="44.4357" lon="0.93845">
        <ele>96.75</ele>
        <time>2013-12-21T14:31:25Z</time>
      </trkpt>
      <trkpt lat="44.43571" lon="0.93845">
        <ele>97.23</ele>
        <time>2013-12-21T14:31:49Z</time>
      </trkpt>
      <trkpt lat="44.43571" lon="0.93845">
        <ele>98.19</ele>
        <time>2013-12-21T14:32:16Z</time>
      </trkpt>
      <trkpt lat="44.43571" lon="0.93845">
        <ele>97.71</ele>
        <time>2013-12-21T14:32:42Z</time>
      </trkpt>
      <trkpt lat="44.43571" lon="0.93846">
        <ele>96.27</ele>
        <time>2013-12-21T14:33:04Z</time>
      </trkpt>
      <trkpt lat="44.43562" lon="0.9386">
        <ele>97.23</ele>
        <time>2013-12-21T14:33:15Z</time>
      </trkpt>
      <trkpt lat="44.4356" lon="0.93864">
        <ele>97.71</ele>
        <time>2013-12-21T14:33:30Z</time>
      </trkpt>
      <trkpt lat="44.4356" lon="0.93864">
        <ele>97.23</ele>
        <time>2013-12-21T14:33:55Z</time>
      </trkpt>
      <trkpt lat="44.43559" lon="0.93867">
        <ele>97.71</ele>
        <time>2013-12-21T14:34:06Z</time>
      </trkpt>
      <trkpt lat="44.43558" lon="0.93867">
        <ele>97.71</ele>
        <time>2013-12-21T14:34:24Z</time>
      </trkpt>
      <trkpt lat="44.43558" lon="0.93867">
        <ele>98.67</ele>
        <time>2013-12-21T14:34:47Z</time>
      </trkpt>
      <trkpt lat="44.43557" lon="0.93868">
        <ele>98.19</ele>
        <time>2013-12-21T14:35:13Z</time>
      </trkpt>
      <trkpt lat="44.43555" lon="0.93872">
        <ele>98.19</ele>
        <time>2013-12-21T14:35:25Z</time>
      </trkpt>
      <trkpt lat="44.43555" lon="0.93872">
        <ele>98.67</ele>
        <time>2013-12-21T14:35:47Z</time>
      </trkpt>
      <trkpt lat="44.43554" lon="0.93874">
        <ele>98.19</ele>
        <time>2013-12-21T14:36:01Z</time>
      </trkpt>
      <trkpt lat="44.43549" lon="0.93879">
        <ele>98.19</ele>
        <time>2013-12-21T14:36:16Z</time>
      </trkpt>
      <trkpt lat="44.43544" lon="0.93892">
        <ele>99.15</ele>
        <time>2013-12-21T14:36:32Z</time>
      </trkpt>
      <trkpt lat="44.43545" lon="0.93893">
        <ele>98.67</ele>
        <time>2013-12-21T14:36:53Z</time>
      </trkpt>
      <trkpt lat="44.43543" lon="0.93893">
        <ele>98.19</ele>
        <time>2013-12-21T14:37:16Z</time>
      </trkpt>
      <trkpt lat="44.43542" lon="0.93893">
        <ele>97.71</ele>
        <time>2013-12-21T14:37:19Z</time>
      </trkpt>
      <trkpt lat="44.43533" lon="0.93889">
        <ele>98.19</ele>
        <time>2013-12-21T14:37:24Z</time>
      </trkpt>
      <trkpt lat="44.43509" lon="0.9387">
        <ele>97.23</ele>
        <time>2013-12-21T14:37:36Z</time>
      </trkpt>
      <trkpt lat="44.43477" lon="0.93863">
        <ele>96.75</ele>
        <time>2013-12-21T14:37:47Z</time>
      </trkpt>
      <trkpt lat="44.43441" lon="0.93852">
        <ele>97.23</ele>
        <time>2013-12-21T14:37:59Z</time>
      </trkpt>
      <trkpt lat="44.43415" lon="0.93851">
        <ele>97.23</ele>
        <time>2013-12-21T14:38:10Z</time>
      </trkpt>
      <trkpt lat="44.43408" lon="0.93853">
        <ele>99.15</ele>
        <time>2013-12-21T14:38:22Z</time>
      </trkpt>
      <trkpt lat="44.43392" lon="0.93866">
        <ele>100.11</ele>
        <time>2013-12-21T14:38:33Z</time>
      </trkpt>
      <trkpt lat="44.43391" lon="0.93868">
        <ele>100.11</ele>
        <time>2013-12-21T14:38:34Z</time>
      </trkpt>
      <trkpt lat="44.43387" lon="0.93879">
        <ele>100.6</ele>
        <time>2013-12-21T14:38:38Z</time>
      </trkpt>
      <trkpt lat="44.43382" lon="0.93897">
        <ele>100.11</ele>
        <time>2013-12-21T14:38:49Z</time>
      </trkpt>
      <trkpt lat="44.43373" lon="0.93911">
        <ele>100.11</ele>
        <time>2013-12-21T14:39:02Z</time>
      </trkpt>
      <trkpt lat="44.43368" lon="0.93915">
        <ele>100.6</ele>
        <time>2013-12-21T14:39:18Z</time>
      </trkpt>
      <trkpt lat="44.43369" lon="0.93922">
        <ele>101.08</ele>
        <time>2013-12-21T14:39:28Z</time>
      </trkpt>
      <trkpt lat="44.43365" lon="0.93938">
        <ele>100.11</ele>
        <time>2013-12-21T14:39:39Z</time>
      </trkpt>
      <trkpt lat="44.43361" lon="0.93961">
        <ele>99.15</ele>
        <time>2013-12-21T14:39:53Z</time>
      </trkpt>
      <trkpt lat="44.43352" lon="0.93987">
        <ele>101.08</ele>
        <time>2013-12-21T14:40:09Z</time>
      </trkpt>
      <trkpt lat="44.43347" lon="0.93998">
        <ele>101.08</ele>
        <time>2013-12-21T14:40:20Z</time>
      </trkpt>
      <trkpt lat="44.4334" lon="0.94009">
        <ele>100.6</ele>
        <time>2013-12-21T14:40:32Z</time>
      </trkpt>
      <trkpt lat="44.43328" lon="0.94025">
        <ele>102.04</ele>
        <time>2013-12-21T14:40:44Z</time>
      </trkpt>
      <trkpt lat="44.43318" lon="0.94037">
        <ele>104.92</ele>
        <time>2013-12-21T14:40:57Z</time>
      </trkpt>
      <trkpt lat="44.43309" lon="0.94042">
        <ele>106.84</ele>
        <time>2013-12-21T14:41:08Z</time>
      </trkpt>
      <trkpt lat="44.43306" lon="0.94044">
        <ele>107.81</ele>
        <time>2013-12-21T14:41:11Z</time>
      </trkpt>
      <trkpt lat="44.43292" lon="0.94051">
        <ele>110.21</ele>
        <time>2013-12-21T14:41:25Z</time>
      </trkpt>
      <trkpt lat="44.43282" lon="0.94057">
        <ele>111.17</ele>
        <time>2013-12-21T14:41:36Z</time>
      </trkpt>
      <trkpt lat="44.43284" lon="0.94056">
        <ele>111.17</ele>
        <time>2013-12-21T14:41:39Z</time>
      </trkpt>
      <trkpt lat="44.43286" lon="0.94056">
        <ele>110.21</ele>
        <time>2013-12-21T14:41:52Z</time>
      </trkpt>
      <trkpt lat="44.43297" lon="0.94048">
        <ele>110.21</ele>
        <time>2013-12-21T14:42:04Z</time>
      </trkpt>
      <trkpt lat="44.43304" lon="0.94047">
        <ele>109.73</ele>
        <time>2013-12-21T14:42:14Z</time>
      </trkpt>
      <trkpt lat="44.43312" lon="0.94043">
        <ele>107.81</ele>
        <time>2013-12-21T14:42:26Z</time>
      </trkpt>
      <trkpt lat="44.43318" lon="0.94037">
        <ele>107.32</ele>
        <time>2013-12-21T14:42:38Z</time>
      </trkpt>
      <trkpt lat="44.43321" lon="0.94034">
        <ele>107.32</ele>
        <time>2013-12-21T14:42:52Z</time>
      </trkpt>
      <trkpt lat="44.43324" lon="0.9403">
        <ele>106.84</ele>
        <time>2013-12-21T14:43:02Z</time>
      </trkpt>
      <trkpt lat="44.43336" lon="0.94013">
        <ele>104.92</ele>
        <time>2013-12-21T14:43:12Z</time>
      </trkpt>
      <trkpt lat="44.43351" lon="0.93983">
        <ele>101.08</ele>
        <time>2013-12-21T14:43:26Z</time>
      </trkpt>
      <trkpt lat="44.43353" lon="0.93979">
        <ele>101.56</ele>
        <time>2013-12-21T14:43:34Z</time>
      </trkpt>
      <trkpt lat="44.43364" lon="0.93948">
        <ele>105.88</ele>
        <time>2013-12-21T14:43:47Z</time>
      </trkpt>
      <trkpt lat="44.43365" lon="0.93944">
        <ele>106.36</ele>
        <time>2013-12-21T14:44:00Z</time>
      </trkpt>
      <trkpt lat="44.43366" lon="0.93943">
        <ele>106.36</ele>
        <time>2013-12-21T14:44:16Z</time>
      </trkpt>
      <trkpt lat="44.43367" lon="0.9394">
        <ele>105.4</ele>
        <time>2013-12-21T14:44:29Z</time>
      </trkpt>
      <trkpt lat="44.43368" lon="0.93936">
        <ele>105.4</ele>
        <time>2013-12-21T14:44:35Z</time>
      </trkpt>
      <trkpt lat="44.43372" lon="0.93922">
        <ele>106.84</ele>
        <time>2013-12-21T14:44:42Z</time>
      </trkpt>
      <trkpt lat="44.43382" lon="0.93876">
        <ele>106.84</ele>
        <time>2013-12-21T14:44:57Z</time>
      </trkpt>
      <trkpt lat="44.43401" lon="0.93855">
        <ele>106.36</ele>
        <time>2013-12-21T14:45:08Z</time>
      </trkpt>
      <trkpt lat="44.43402" lon="0.93854">
        <ele>106.36</ele>
        <time>2013-12-21T14:45:12Z</time>
      </trkpt>
      <trkpt lat="44.43416" lon="0.9385">
        <ele>106.36</ele>
        <time>2013-12-21T14:45:20Z</time>
      </trkpt>
      <trkpt lat="44.43453" lon="0.93859">
        <ele>102.52</ele>
        <time>2013-12-21T14:45:32Z</time>
      </trkpt>
      <trkpt lat="44.43488" lon="0.93864">
        <ele>102.52</ele>
        <time>2013-12-21T14:45:43Z</time>
      </trkpt>
      <trkpt lat="44.43505" lon="0.93873">
        <ele>101.08</ele>
        <time>2013-12-21T14:45:49Z</time>
      </trkpt>
      <trkpt lat="44.43535" lon="0.93896">
        <ele>97.71</ele>
        <time>2013-12-21T14:46:02Z</time>
      </trkpt>
      <trkpt lat="44.43539" lon="0.939">
        <ele>99.63</ele>
        <time>2013-12-21T14:46:11Z</time>
      </trkpt>
      <trkpt lat="44.43539" lon="0.93899">
        <ele>100.11</ele>
        <time>2013-12-21T14:46:30Z</time>
      </trkpt>
      <trkpt lat="44.43539" lon="0.939">
        <ele>100.11</ele>
        <time>2013-12-21T14:46:57Z</time>
      </trkpt>
      <trkpt lat="44.43538" lon="0.939">
        <ele>100.6</ele>
        <time>2013-12-21T14:47:15Z</time>
      </trkpt>
      <trkpt lat="44.43538" lon="0.93901">
        <ele>101.08</ele>
        <time>2013-12-21T14:47:33Z</time>
      </trkpt>
      <trkpt lat="44.43538" lon="0.93901">
        <ele>101.08</ele>
        <time>2013-12-21T14:47:48Z</time>
      </trkpt>
      <trkpt lat="44.4354" lon="0.93902">
        <ele>102.52</ele>
        <time>2013-12-21T14:48:22Z</time>
      </trkpt>
      <trkpt lat="44.43541" lon="0.93902">
        <ele>103</ele>
        <time>2013-12-21T14:48:53Z</time>
      </trkpt>
      <trkpt lat="44.43542" lon="0.93902">
        <ele>103.96</ele>
        <time>2013-12-21T14:49:28Z</time>
      </trkpt>
      <trkpt lat="44.43543" lon="0.93902">
        <ele>104.92</ele>
        <time>2013-12-21T14:50:07Z</time>
      </trkpt>
      <trkpt lat="44.43543" lon="0.93904">
        <ele>104.92</ele>
        <time>2013-12-21T14:50:36Z</time>
      </trkpt>
      <trkpt lat="44.43544" lon="0.93904">
        <ele>104.44</ele>
        <time>2013-12-21T14:51:11Z</time>
      </trkpt>
      <trkpt lat="44.43544" lon="0.93904">
        <ele>104.92</ele>
        <time>2013-12-21T14:51:33Z</time>
      </trkpt>
      <trkpt lat="44.43544" lon="0.93903">
        <ele>104.44</ele>
        <time>2013-12-21T14:52:02Z</time>
      </trkpt>
      <trkpt lat="44.43544" lon="0.93905">
        <ele>104.92</ele>
        <time>2013-12-21T14:52:30Z</time>
      </trkpt>
      <trkpt lat="44.43541" lon="0.93901">
        <ele>105.4</ele>
        <time>2013-12-21T14:52:41Z</time>
      </trkpt>
      <trkpt lat="44.43541" lon="0.939">
        <ele>105.4</ele>
        <time>2013-12-21T14:52:59Z</time>
      </trkpt>
      <trkpt lat="44.4354" lon="0.93901">
        <ele>104.44</ele>
        <time>2013-12-21T14:53:23Z</time>
      </trkpt>
      <trkpt lat="44.43539" lon="0.939">
        <ele>105.4</ele>
        <time>2013-12-21T14:53:43Z</time>
      </trkpt>
      <trkpt lat="44.43539" lon="0.939">
        <ele>104.92</ele>
        <time>2013-12-21T14:54:04Z</time>
      </trkpt>
      <trkpt lat="44.43539" lon="0.93899">
        <ele>104.44</ele>
        <time>2013-12-21T14:54:21Z</time>
      </trkpt>
      <trkpt lat="44.43539" lon="0.939">
        <ele>105.4</ele>
        <time>2013-12-21T14:54:38Z</time>
      </trkpt>
      <trkpt lat="44.43539" lon="0.93898">
        <ele>106.36</ele>
        <time>2013-12-21T14:54:51Z</time>
      </trkpt>
      <trkpt lat="44.43539" lon="0.93897">
        <ele>106.36</ele>
        <time>2013-12-21T14:55:08Z</time>
      </trkpt>
      <trkpt lat="44.43541" lon="0.93897">
        <ele>105.4</ele>
        <time>2013-12-21T14:55:29Z</time>
      </trkpt>
      <trkpt lat="44.43541" lon="0.93897">
        <ele>105.88</ele>
        <time>2013-12-21T14:55:43Z</time>
      </trkpt>
      <trkpt lat="44.43541" lon="0.93896">
        <ele>105.88</ele>
        <time>2013-12-21T14:55:46Z</time>
      </trkpt>
      <trkpt lat="44.43526" lon="0.93883">
        <ele>104.92</ele>
        <time>2013-12-21T14:55:56Z</time>
      </trkpt>
      <trkpt lat="44.43521" lon="0.93878">
        <ele>104.44</ele>
        <time>2013-12-21T14:56:11Z</time>
      </trkpt>
      <trkpt lat="44.43519" lon="0.93876">
        <ele>103.96</ele>
        <time>2013-12-21T14:56:22Z</time>
      </trkpt>
      <trkpt lat="44.43517" lon="0.93874">
        <ele>103.96</ele>
        <time>2013-12-21T14:56:24Z</time>
      </trkpt>
      <trkpt lat="44.43508" lon="0.93869">
        <ele>103.96</ele>
        <time>2013-12-21T14:56:29Z</time>
      </trkpt>
      <trkpt lat="44.43479" lon="0.93864">
        <ele>103.96</ele>
        <time>2013-12-21T14:56:42Z</time>
      </trkpt>
      <trkpt lat="44.43448" lon="0.93854">
        <ele>105.4</ele>
        <time>2013-12-21T14:56:53Z</time>
      </trkpt>
      <trkpt lat="44.43423" lon="0.93851">
        <ele>105.88</ele>
        <time>2013-12-21T14:57:02Z</time>
      </trkpt>
      <trkpt lat="44.43413" lon="0.93854">
        <ele>106.36</ele>
        <time>2013-12-21T14:57:12Z</time>
      </trkpt>
      <trkpt lat="44.43395" lon="0.93865">
        <ele>107.32</ele>
        <time>2013-12-21T14:57:24Z</time>
      </trkpt>
      <trkpt lat="44.43393" lon="0.93869">
        <ele>106.84</ele>
        <time>2013-12-21T14:57:26Z</time>
      </trkpt>
      <trkpt lat="44.43389" lon="0.93877">
        <ele>105.4</ele>
        <time>2013-12-21T14:57:30Z</time>
      </trkpt>
      <trkpt lat="44.43388" lon="0.93883">
        <ele>104.44</ele>
        <time>2013-12-21T14:57:33Z</time>
      </trkpt>
      <trkpt lat="44.43375" lon="0.93912">
        <ele>103</ele>
        <time>2013-12-21T14:57:45Z</time>
      </trkpt>
      <trkpt lat="44.43374" lon="0.93914">
        <ele>103</ele>
        <time>2013-12-21T14:57:46Z</time>
      </trkpt>
      <trkpt lat="44.43366" lon="0.93939">
        <ele>99.63</ele>
        <time>2013-12-21T14:57:58Z</time>
      </trkpt>
      <trkpt lat="44.43366" lon="0.93942">
        <ele>98.67</ele>
        <time>2013-12-21T14:58:00Z</time>
      </trkpt>
      <trkpt lat="44.43362" lon="0.93974">
        <ele>92.9</ele>
        <time>2013-12-21T14:58:15Z</time>
      </trkpt>
      <trkpt lat="44.4336" lon="0.93976">
        <ele>93.87</ele>
        <time>2013-12-21T14:58:19Z</time>
      </trkpt>
      <trkpt lat="44.43354" lon="0.93992">
        <ele>94.35</ele>
        <time>2013-12-21T14:58:32Z</time>
      </trkpt>
      <trkpt lat="44.43336" lon="0.9402">
        <ele>97.71</ele>
        <time>2013-12-21T14:58:45Z</time>
      </trkpt>
      <trkpt lat="44.43312" lon="0.9404">
        <ele>101.56</ele>
        <time>2013-12-21T14:58:57Z</time>
      </trkpt>
      <trkpt lat="44.43286" lon="0.94057">
        <ele>104.92</ele>
        <time>2013-12-21T14:59:08Z</time>
      </trkpt>
      <trkpt lat="44.43273" lon="0.94064">
        <ele>106.36</ele>
        <time>2013-12-21T14:59:14Z</time>
      </trkpt>
      <trkpt lat="44.43252" lon="0.94077">
        <ele>108.29</ele>
        <time>2013-12-21T14:59:23Z</time>
      </trkpt>
      <trkpt lat="44.4324" lon="0.94088">
        <ele>108.77</ele>
        <time>2013-12-21T14:59:36Z</time>
      </trkpt>
      <trkpt lat="44.43219" lon="0.94113">
        <ele>111.17</ele>
        <time>2013-12-21T14:59:47Z</time>
      </trkpt>
      <trkpt lat="44.43209" lon="0.94128">
        <ele>111.65</ele>
        <time>2013-12-21T14:59:56Z</time>
      </trkpt>
      <trkpt lat="44.43208" lon="0.94128">
        <ele>111.17</ele>
        <time>2013-12-21T15:00:14Z</time>
      </trkpt>
      <trkpt lat="44.43207" lon="0.94128">
        <ele>109.25</ele>
        <time>2013-12-21T15:00:45Z</time>
      </trkpt>
      <trkpt lat="44.43207" lon="0.94129">
        <ele>109.25</ele>
        <time>2013-12-21T15:01:07Z</time>
      </trkpt>
      <trkpt lat="44.43208" lon="0.94129">
        <ele>109.25</ele>
        <time>2013-12-21T15:01:27Z</time>
      </trkpt>
      <trkpt lat="44.43208" lon="0.94129">
        <ele>109.25</ele>
        <time>2013-12-21T15:01:52Z</time>
      </trkpt>
      <trkpt lat="44.43208" lon="0.94128">
        <ele>110.21</ele>
        <time>2013-12-21T15:02:13Z</time>
      </trkpt>
      <trkpt lat="44.43208" lon="0.94128">
        <ele>110.69</ele>
        <time>2013-12-21T15:02:35Z</time>
      </trkpt>
      <trkpt lat="44.43208" lon="0.94129">
        <ele>110.21</ele>
        <time>2013-12-21T15:03:00Z</time>
      </trkpt>
      <trkpt lat="44.43208" lon="0.9413">
        <ele>110.21</ele>
        <time>2013-12-21T15:03:19Z</time>
      </trkpt>
      <trkpt lat="44.43209" lon="0.94131">
        <ele>110.21</ele>
        <time>2013-12-21T15:03:39Z</time>
      </trkpt>
      <trkpt lat="44.43209" lon="0.94133">
        <ele>110.21</ele>
        <time>2013-12-21T15:04:01Z</time>
      </trkpt>
      <trkpt lat="44.43209" lon="0.94133">
        <ele>111.17</ele>
        <time>2013-12-21T15:04:24Z</time>
      </trkpt>
      <trkpt lat="44.43208" lon="0.94133">
        <ele>111.65</ele>
        <time>2013-12-21T15:04:55Z</time>
      </trkpt>
      <trkpt lat="44.43209" lon="0.94132">
        <ele>113.09</ele>
        <time>2013-12-21T15:05:31Z</time>
      </trkpt>
      <trkpt lat="44.43208" lon="0.9413">
        <ele>112.61</ele>
        <time>2013-12-21T15:05:56Z</time>
      </trkpt>
      <trkpt lat="44.43208" lon="0.94132">
        <ele>113.09</ele>
        <time>2013-12-21T15:06:25Z</time>
      </trkpt>
      <trkpt lat="44.43208" lon="0.94133">
        <ele>112.61</ele>
        <time>2013-12-21T15:06:47Z</time>
      </trkpt>
      <trkpt lat="44.43208" lon="0.94133">
        <ele>112.13</ele>
        <time>2013-12-21T15:07:07Z</time>
      </trkpt>
      <trkpt lat="44.43208" lon="0.94132">
        <ele>112.13</ele>
        <time>2013-12-21T15:07:32Z</time>
      </trkpt>
      <trkpt lat="44.43209" lon="0.94131">
        <ele>112.13</ele>
        <time>2013-12-21T15:07:51Z</time>
      </trkpt>
      <trkpt lat="44.43208" lon="0.94131">
        <ele>112.13</ele>
        <time>2013-12-21T15:08:10Z</time>
      </trkpt>
      <trkpt lat="44.43208" lon="0.94131">
        <ele>111.65</ele>
        <time>2013-12-21T15:08:31Z</time>
      </trkpt>
      <trkpt lat="44.43208" lon="0.94131">
        <ele>111.65</ele>
        <time>2013-12-21T15:08:50Z</time>
      </trkpt>
      <trkpt lat="44.43209" lon="0.9413">
        <ele>111.17</ele>
        <time>2013-12-21T15:09:06Z</time>
      </trkpt>
      <trkpt lat="44.43209" lon="0.9413">
        <ele>110.69</ele>
        <time>2013-12-21T15:09:30Z</time>
      </trkpt>
      <trkpt lat="44.43209" lon="0.94131">
        <ele>109.73</ele>
        <time>2013-12-21T15:09:51Z</time>
      </trkpt>
      <trkpt lat="44.43208" lon="0.94131">
        <ele>109.73</ele>
        <time>2013-12-21T15:10:10Z</time>
      </trkpt>
      <trkpt lat="44.43208" lon="0.94132">
        <ele>109.73</ele>
        <time>2013-12-21T15:10:29Z</time>
      </trkpt>
      <trkpt lat="44.43207" lon="0.94131">
        <ele>109.73</ele>
        <time>2013-12-21T15:10:43Z</time>
      </trkpt>
      <trkpt lat="44.43207" lon="0.94132">
        <ele>109.73</ele>
        <time>2013-12-21T15:11:04Z</time>
      </trkpt>
      <trkpt lat="44.43207" lon="0.94132">
        <ele>110.21</ele>
        <time>2013-12-21T15:11:30Z</time>
      </trkpt>
      <trkpt lat="44.43206" lon="0.94132">
        <ele>110.69</ele>
        <time>2013-12-21T15:11:56Z</time>
      </trkpt>
      <trkpt lat="44.43206" lon="0.94132">
        <ele>110.69</ele>
        <time>2013-12-21T15:12:17Z</time>
      </trkpt>
      <trkpt lat="44.43205" lon="0.94132">
        <ele>110.69</ele>
        <time>2013-12-21T15:12:39Z</time>
      </trkpt>
      <trkpt lat="44.43206" lon="0.94132">
        <ele>110.69</ele>
        <time>2013-12-21T15:13:01Z</time>
      </trkpt>
      <trkpt lat="44.43206" lon="0.94132">
        <ele>109.73</ele>
        <time>2013-12-21T15:13:24Z</time>
      </trkpt>
      <trkpt lat="44.43207" lon="0.94133">
        <ele>109.73</ele>
        <time>2013-12-21T15:13:46Z</time>
      </trkpt>
      <trkpt lat="44.43207" lon="0.94133">
        <ele>110.21</ele>
        <time>2013-12-21T15:14:01Z</time>
      </trkpt>
      <trkpt lat="44.43207" lon="0.94133">
        <ele>110.69</ele>
        <time>2013-12-21T15:14:21Z</time>
      </trkpt>
      <trkpt lat="44.43207" lon="0.94133">
        <ele>111.65</ele>
        <time>2013-12-21T15:14:43Z</time>
      </trkpt>
      <trkpt lat="44.43204" lon="0.94136">
        <ele>110.69</ele>
        <time>2013-12-21T15:15:02Z</time>
      </trkpt>
      <trkpt lat="44.43203" lon="0.94137">
        <ele>110.69</ele>
        <time>2013-12-21T15:15:03Z</time>
      </trkpt>
      <trkpt lat="44.43202" lon="0.94138">
        <ele>110.69</ele>
        <time>2013-12-21T15:15:04Z</time>
      </trkpt>
      <trkpt lat="44.43201" lon="0.94139">
        <ele>110.69</ele>
        <time>2013-12-21T15:15:05Z</time>
      </trkpt>
      <trkpt lat="44.43201" lon="0.9414">
        <ele>110.69</ele>
        <time>2013-12-21T15:15:06Z</time>
      </trkpt>
      <trkpt lat="44.432" lon="0.94141">
        <ele>110.69</ele>
        <time>2013-12-21T15:15:07Z</time>
      </trkpt>
      <trkpt lat="44.43197" lon="0.94144">
        <ele>109.73</ele>
        <time>2013-12-21T15:15:20Z</time>
      </trkpt>
      <trkpt lat="44.43197" lon="0.94144">
        <ele>110.21</ele>
        <time>2013-12-21T15:15:50Z</time>
      </trkpt>
      <trkpt lat="44.43197" lon="0.94144">
        <ele>109.73</ele>
        <time>2013-12-21T15:16:12Z</time>
      </trkpt>
      <trkpt lat="44.43196" lon="0.94145">
        <ele>109.73</ele>
        <time>2013-12-21T15:16:13Z</time>
      </trkpt>
      <trkpt lat="44.43194" lon="0.94148">
        <ele>109.73</ele>
        <time>2013-12-21T15:16:16Z</time>
      </trkpt>
      <trkpt lat="44.43192" lon="0.94148">
        <ele>109.25</ele>
        <time>2013-12-21T15:16:17Z</time>
      </trkpt>
      <trkpt lat="44.43191" lon="0.9415">
        <ele>109.25</ele>
        <time>2013-12-21T15:16:18Z</time>
      </trkpt>
      <trkpt lat="44.43189" lon="0.94152">
        <ele>109.25</ele>
        <time>2013-12-21T15:16:19Z</time>
      </trkpt>
      <trkpt lat="44.43186" lon="0.94154">
        <ele>108.77</ele>
        <time>2013-12-21T15:16:20Z</time>
      </trkpt>
      <trkpt lat="44.43184" lon="0.94157">
        <ele>108.77</ele>
        <time>2013-12-21T15:16:21Z</time>
      </trkpt>
      <trkpt lat="44.43181" lon="0.94161">
        <ele>108.77</ele>
        <time>2013-12-21T15:16:22Z</time>
      </trkpt>
      <trkpt lat="44.43178" lon="0.94166">
        <ele>108.77</ele>
        <time>2013-12-21T15:16:23Z</time>
      </trkpt>
      <trkpt lat="44.43175" lon="0.9417">
        <ele>108.29</ele>
        <time>2013-12-21T15:16:24Z</time>
      </trkpt>
      <trkpt lat="44.43172" lon="0.94175">
        <ele>108.29</ele>
        <time>2013-12-21T15:16:25Z</time>
      </trkpt>
      <trkpt lat="44.43164" lon="0.94185">
        <ele>108.29</ele>
        <time>2013-12-21T15:16:27Z</time>
      </trkpt>
      <trkpt lat="44.43159" lon="0.94189">
        <ele>108.29</ele>
        <time>2013-12-21T15:16:28Z</time>
      </trkpt>
      <trkpt lat="44.43155" lon="0.94192">
        <ele>107.81</ele>
        <time>2013-12-21T15:16:29Z</time>
      </trkpt>
      <trkpt lat="44.4315" lon="0.94193">
        <ele>107.81</ele>
        <time>2013-12-21T15:16:30Z</time>
      </trkpt>
      <trkpt lat="44.43146" lon="0.94192">
        <ele>107.81</ele>
        <time>2013-12-21T15:16:31Z</time>
      </trkpt>
      <trkpt lat="44.43141" lon="0.94189">
        <ele>107.81</ele>
        <time>2013-12-21T15:16:32Z</time>
      </trkpt>
      <trkpt lat="44.43137" lon="0.94186">
        <ele>108.29</ele>
        <time>2013-12-21T15:16:33Z</time>
      </trkpt>
      <trkpt lat="44.43133" lon="0.94182">
        <ele>108.29</ele>
        <time>2013-12-21T15:16:34Z</time>
      </trkpt>
      <trkpt lat="44.43124" lon="0.94175">
        <ele>108.29</ele>
        <time>2013-12-21T15:16:36Z</time>
      </trkpt>
      <trkpt lat="44.431" lon="0.94142">
        <ele>112.61</ele>
        <time>2013-12-21T15:16:43Z</time>
      </trkpt>
      <trkpt lat="44.43097" lon="0.94136">
        <ele>113.09</ele>
        <time>2013-12-21T15:16:44Z</time>
      </trkpt>
      <trkpt lat="44.43096" lon="0.9413">
        <ele>114.05</ele>
        <time>2013-12-21T15:16:45Z</time>
      </trkpt>
      <trkpt lat="44.43089" lon="0.94112">
        <ele>116.46</ele>
        <time>2013-12-21T15:16:48Z</time>
      </trkpt>
      <trkpt lat="44.43084" lon="0.9406">
        <ele>120.78</ele>
        <time>2013-12-21T15:16:58Z</time>
      </trkpt>
      <trkpt lat="44.43074" lon="0.93999">
        <ele>123.67</ele>
        <time>2013-12-21T15:17:10Z</time>
      </trkpt>
      <trkpt lat="44.43072" lon="0.93991">
        <ele>124.15</ele>
        <time>2013-12-21T15:17:12Z</time>
      </trkpt>
      <trkpt lat="44.43069" lon="0.93988">
        <ele>124.15</ele>
        <time>2013-12-21T15:17:13Z</time>
      </trkpt>
      <trkpt lat="44.43066" lon="0.93984">
        <ele>124.15</ele>
        <time>2013-12-21T15:17:14Z</time>
      </trkpt>
      <trkpt lat="44.43064" lon="0.9398">
        <ele>124.15</ele>
        <time>2013-12-21T15:17:15Z</time>
      </trkpt>
      <trkpt lat="44.43062" lon="0.93977">
        <ele>124.15</ele>
        <time>2013-12-21T15:17:16Z</time>
      </trkpt>
      <trkpt lat="44.43039" lon="0.93942">
        <ele>124.63</ele>
        <time>2013-12-21T15:17:26Z</time>
      </trkpt>
      <trkpt lat="44.4302" lon="0.9392">
        <ele>123.19</ele>
        <time>2013-12-21T15:17:37Z</time>
      </trkpt>
      <trkpt lat="44.43019" lon="0.93919">
        <ele>121.26</ele>
        <time>2013-12-21T15:18:05Z</time>
      </trkpt>
      <trkpt lat="44.43016" lon="0.93917">
        <ele>121.74</ele>
        <time>2013-12-21T15:18:07Z</time>
      </trkpt>
      <trkpt lat="44.43014" lon="0.93913">
        <ele>121.74</ele>
        <time>2013-12-21T15:18:09Z</time>
      </trkpt>
      <trkpt lat="44.43011" lon="0.9391">
        <ele>121.74</ele>
        <time>2013-12-21T15:18:11Z</time>
      </trkpt>
      <trkpt lat="44.43002" lon="0.93899">
        <ele>121.74</ele>
        <time>2013-12-21T15:18:16Z</time>
      </trkpt>
      <trkpt lat="44.43" lon="0.93897">
        <ele>121.74</ele>
        <time>2013-12-21T15:18:17Z</time>
      </trkpt>
      <trkpt lat="44.42999" lon="0.93894">
        <ele>121.74</ele>
        <time>2013-12-21T15:18:18Z</time>
      </trkpt>
      <trkpt lat="44.42997" lon="0.93892">
        <ele>122.22</ele>
        <time>2013-12-21T15:18:19Z</time>
      </trkpt>
      <trkpt lat="44.42995" lon="0.9389">
        <ele>122.22</ele>
        <time>2013-12-21T15:18:20Z</time>
      </trkpt>
      <trkpt lat="44.42993" lon="0.93888">
        <ele>122.22</ele>
        <time>2013-12-21T15:18:21Z</time>
      </trkpt>
      <trkpt lat="44.42992" lon="0.93886">
        <ele>121.74</ele>
        <time>2013-12-21T15:18:22Z</time>
      </trkpt>
      <trkpt lat="44.42991" lon="0.93884">
        <ele>121.74</ele>
        <time>2013-12-21T15:18:23Z</time>
      </trkpt>
      <trkpt lat="44.42989" lon="0.93883">
        <ele>121.74</ele>
        <time>2013-12-21T15:18:24Z</time>
      </trkpt>
      <trkpt lat="44.42988" lon="0.93881">
        <ele>121.74</ele>
        <time>2013-12-21T15:18:25Z</time>
      </trkpt>
      <trkpt lat="44.42987" lon="0.93879">
        <ele>121.74</ele>
        <time>2013-12-21T15:18:26Z</time>
      </trkpt>
      <trkpt lat="44.42986" lon="0.93878">
        <ele>121.74</ele>
        <time>2013-12-21T15:18:27Z</time>
      </trkpt>
      <trkpt lat="44.42985" lon="0.93876">
        <ele>121.74</ele>
        <time>2013-12-21T15:18:28Z</time>
      </trkpt>
      <trkpt lat="44.42984" lon="0.93874">
        <ele>121.74</ele>
        <time>2013-12-21T15:18:29Z</time>
      </trkpt>
      <trkpt lat="44.42983" lon="0.93873">
        <ele>122.22</ele>
        <time>2013-12-21T15:18:30Z</time>
      </trkpt>
      <trkpt lat="44.42981" lon="0.93872">
        <ele>122.22</ele>
        <time>2013-12-21T15:18:31Z</time>
      </trkpt>
      <trkpt lat="44.4298" lon="0.9387">
        <ele>122.22</ele>
        <time>2013-12-21T15:18:32Z</time>
      </trkpt>
      <trkpt lat="44.42978" lon="0.93869">
        <ele>122.22</ele>
        <time>2013-12-21T15:18:33Z</time>
      </trkpt>
      <trkpt lat="44.42977" lon="0.93867">
        <ele>122.22</ele>
        <time>2013-12-21T15:18:34Z</time>
      </trkpt>
      <trkpt lat="44.42976" lon="0.93865">
        <ele>122.71</ele>
        <time>2013-12-21T15:18:35Z</time>
      </trkpt>
      <trkpt lat="44.42975" lon="0.93863">
        <ele>122.71</ele>
        <time>2013-12-21T15:18:36Z</time>
      </trkpt>
      <trkpt lat="44.42963" lon="0.93846">
        <ele>122.22</ele>
        <time>2013-12-21T15:18:48Z</time>
      </trkpt>
      <trkpt lat="44.42962" lon="0.93845">
        <ele>122.71</ele>
        <time>2013-12-21T15:18:49Z</time>
      </trkpt>
      <trkpt lat="44.42957" lon="0.93839">
        <ele>123.19</ele>
        <time>2013-12-21T15:18:53Z</time>
      </trkpt>
      <trkpt lat="44.42956" lon="0.93837">
        <ele>123.19</ele>
        <time>2013-12-21T15:18:54Z</time>
      </trkpt>
      <trkpt lat="44.42954" lon="0.93836">
        <ele>123.19</ele>
        <time>2013-12-21T15:18:55Z</time>
      </trkpt>
      <trkpt lat="44.42952" lon="0.93834">
        <ele>123.67</ele>
        <time>2013-12-21T15:18:56Z</time>
      </trkpt>
      <trkpt lat="44.42951" lon="0.93832">
        <ele>123.67</ele>
        <time>2013-12-21T15:18:57Z</time>
      </trkpt>
      <trkpt lat="44.42949" lon="0.93829">
        <ele>123.67</ele>
        <time>2013-12-21T15:18:58Z</time>
      </trkpt>
      <trkpt lat="44.42947" lon="0.93827">
        <ele>123.67</ele>
        <time>2013-12-21T15:18:59Z</time>
      </trkpt>
      <trkpt lat="44.4292" lon="0.93806">
        <ele>124.15</ele>
        <time>2013-12-21T15:19:10Z</time>
      </trkpt>
      <trkpt lat="44.42871" lon="0.93768">
        <ele>123.19</ele>
        <time>2013-12-21T15:19:26Z</time>
      </trkpt>
      <trkpt lat="44.42807" lon="0.93707">
        <ele>123.19</ele>
        <time>2013-12-21T15:19:44Z</time>
      </trkpt>
      <trkpt lat="44.4275" lon="0.93653">
        <ele>126.07</ele>
        <time>2013-12-21T15:19:59Z</time>
      </trkpt>
      <trkpt lat="44.42721" lon="0.93632">
        <ele>127.51</ele>
        <time>2013-12-21T15:20:06Z</time>
      </trkpt>
      <trkpt lat="44.42717" lon="0.93629">
        <ele>127.51</ele>
        <time>2013-12-21T15:20:07Z</time>
      </trkpt>
      <trkpt lat="44.42688" lon="0.93611">
        <ele>127.99</ele>
        <time>2013-12-21T15:20:14Z</time>
      </trkpt>
      <trkpt lat="44.42654" lon="0.93578">
        <ele>127.51</ele>
        <time>2013-12-21T15:20:26Z</time>
      </trkpt>
      <trkpt lat="44.42624" lon="0.93555">
        <ele>129.43</ele>
        <time>2013-12-21T15:20:38Z</time>
      </trkpt>
      <trkpt lat="44.42592" lon="0.93534">
        <ele>131.84</ele>
        <time>2013-12-21T15:20:51Z</time>
      </trkpt>
      <trkpt lat="44.42561" lon="0.93509">
        <ele>131.36</ele>
        <time>2013-12-21T15:21:02Z</time>
      </trkpt>
      <trkpt lat="44.4252" lon="0.93498">
        <ele>128.47</ele>
        <time>2013-12-21T15:21:14Z</time>
      </trkpt>
      <trkpt lat="44.42515" lon="0.93497">
        <ele>127.99</ele>
        <time>2013-12-21T15:21:15Z</time>
      </trkpt>
      <trkpt lat="44.42452" lon="0.93463">
        <ele>125.59</ele>
        <time>2013-12-21T15:21:27Z</time>
      </trkpt>
      <trkpt lat="44.42437" lon="0.93443">
        <ele>125.59</ele>
        <time>2013-12-21T15:21:31Z</time>
      </trkpt>
      <trkpt lat="44.42406" lon="0.93417">
        <ele>123.67</ele>
        <time>2013-12-21T15:21:38Z</time>
      </trkpt>
      <trkpt lat="44.42372" lon="0.93379">
        <ele>123.19</ele>
        <time>2013-12-21T15:21:46Z</time>
      </trkpt>
      <trkpt lat="44.42361" lon="0.93368">
        <ele>123.19</ele>
        <time>2013-12-21T15:21:49Z</time>
      </trkpt>
      <trkpt lat="44.42353" lon="0.93362">
        <ele>123.19</ele>
        <time>2013-12-21T15:21:51Z</time>
      </trkpt>
      <trkpt lat="44.42294" lon="0.93354">
        <ele>122.22</ele>
        <time>2013-12-21T15:22:05Z</time>
      </trkpt>
      <trkpt lat="44.42282" lon="0.93361">
        <ele>122.22</ele>
        <time>2013-12-21T15:22:09Z</time>
      </trkpt>
      <trkpt lat="44.42254" lon="0.93362">
        <ele>124.15</ele>
        <time>2013-12-21T15:22:23Z</time>
      </trkpt>
      <trkpt lat="44.42249" lon="0.93361">
        <ele>124.15</ele>
        <time>2013-12-21T15:22:26Z</time>
      </trkpt>
      <trkpt lat="44.42224" lon="0.93364">
        <ele>125.11</ele>
        <time>2013-12-21T15:22:37Z</time>
      </trkpt>
      <trkpt lat="44.42217" lon="0.93358">
        <ele>124.15</ele>
        <time>2013-12-21T15:22:46Z</time>
      </trkpt>
      <trkpt lat="44.42216" lon="0.93357">
        <ele>126.55</ele>
        <time>2013-12-21T15:23:12Z</time>
      </trkpt>
      <trkpt lat="44.42216" lon="0.93358">
        <ele>127.51</ele>
        <time>2013-12-21T15:23:43Z</time>
      </trkpt>
      <trkpt lat="44.42216" lon="0.93358">
        <ele>127.51</ele>
        <time>2013-12-21T15:23:54Z</time>
      </trkpt>
      <trkpt lat="44.42215" lon="0.93337">
        <ele>127.51</ele>
        <time>2013-12-21T15:24:05Z</time>
      </trkpt>
      <trkpt lat="44.42214" lon="0.93335">
        <ele>127.03</ele>
        <time>2013-12-21T15:24:19Z</time>
      </trkpt>
      <trkpt lat="44.42214" lon="0.93335">
        <ele>127.03</ele>
        <time>2013-12-21T15:24:35Z</time>
      </trkpt>
      <trkpt lat="44.42213" lon="0.93335">
        <ele>127.03</ele>
        <time>2013-12-21T15:24:46Z</time>
      </trkpt>
      <trkpt lat="44.42199" lon="0.93327">
        <ele>127.51</ele>
        <time>2013-12-21T15:24:52Z</time>
      </trkpt>
      <trkpt lat="44.42168" lon="0.93305">
        <ele>125.59</ele>
        <time>2013-12-21T15:25:03Z</time>
      </trkpt>
      <trkpt lat="44.42159" lon="0.93298">
        <ele>124.15</ele>
        <time>2013-12-21T15:25:06Z</time>
      </trkpt>
      <trkpt lat="44.42152" lon="0.93293">
        <ele>123.19</ele>
        <time>2013-12-21T15:25:08Z</time>
      </trkpt>
      <trkpt lat="44.42142" lon="0.93287">
        <ele>122.22</ele>
        <time>2013-12-21T15:25:10Z</time>
      </trkpt>
      <trkpt lat="44.42096" lon="0.93257">
        <ele>118.38</ele>
        <time>2013-12-21T15:25:21Z</time>
      </trkpt>
      <trkpt lat="44.42099" lon="0.93236">
        <ele>117.9</ele>
        <time>2013-12-21T15:25:28Z</time>
      </trkpt>
      <trkpt lat="44.42122" lon="0.93203">
        <ele>119.34</ele>
        <time>2013-12-21T15:25:39Z</time>
      </trkpt>
      <trkpt lat="44.42152" lon="0.93165">
        <ele>121.26</ele>
        <time>2013-12-21T15:25:51Z</time>
      </trkpt>
      <trkpt lat="44.42185" lon="0.93128">
        <ele>125.11</ele>
        <time>2013-12-21T15:26:02Z</time>
      </trkpt>
      <trkpt lat="44.42228" lon="0.93096">
        <ele>127.51</ele>
        <time>2013-12-21T15:26:13Z</time>
      </trkpt>
      <trkpt lat="44.42268" lon="0.93051">
        <ele>126.07</ele>
        <time>2013-12-21T15:26:25Z</time>
      </trkpt>
      <trkpt lat="44.423" lon="0.92989">
        <ele>118.86</ele>
        <time>2013-12-21T15:26:35Z</time>
      </trkpt>
      <trkpt lat="44.4231" lon="0.92974">
        <ele>118.38</ele>
        <time>2013-12-21T15:26:38Z</time>
      </trkpt>
      <trkpt lat="44.42333" lon="0.92948">
        <ele>116.94</ele>
        <time>2013-12-21T15:26:44Z</time>
      </trkpt>
      <trkpt lat="44.42378" lon="0.92906">
        <ele>115.98</ele>
        <time>2013-12-21T15:26:55Z</time>
      </trkpt>
      <trkpt lat="44.42404" lon="0.92873">
        <ele>114.53</ele>
        <time>2013-12-21T15:27:02Z</time>
      </trkpt>
      <trkpt lat="44.42441" lon="0.92819">
        <ele>112.13</ele>
        <time>2013-12-21T15:27:10Z</time>
      </trkpt>
      <trkpt lat="44.42502" lon="0.92689">
        <ele>114.05</ele>
        <time>2013-12-21T15:27:27Z</time>
      </trkpt>
      <trkpt lat="44.42527" lon="0.92629">
        <ele>113.57</ele>
        <time>2013-12-21T15:27:40Z</time>
      </trkpt>
      <trkpt lat="44.4253" lon="0.92624">
        <ele>113.09</ele>
        <time>2013-12-21T15:27:42Z</time>
      </trkpt>
      <trkpt lat="44.42531" lon="0.92617">
        <ele>113.09</ele>
        <time>2013-12-21T15:27:52Z</time>
      </trkpt>
      <trkpt lat="44.42532" lon="0.92617">
        <ele>111.65</ele>
        <time>2013-12-21T15:28:06Z</time>
      </trkpt>
      <trkpt lat="44.42532" lon="0.92616">
        <ele>112.13</ele>
        <time>2013-12-21T15:28:26Z</time>
      </trkpt>
      <trkpt lat="44.42532" lon="0.92617">
        <ele>111.65</ele>
        <time>2013-12-21T15:28:46Z</time>
      </trkpt>
      <trkpt lat="44.42533" lon="0.92616">
        <ele>112.13</ele>
        <time>2013-12-21T15:29:01Z</time>
      </trkpt>
      <trkpt lat="44.42533" lon="0.92617">
        <ele>111.65</ele>
        <time>2013-12-21T15:29:26Z</time>
      </trkpt>
      <trkpt lat="44.42533" lon="0.92617">
        <ele>111.17</ele>
        <time>2013-12-21T15:29:51Z</time>
      </trkpt>
      <trkpt lat="44.42532" lon="0.92617">
        <ele>111.17</ele>
        <time>2013-12-21T15:30:11Z</time>
      </trkpt>
      <trkpt lat="44.42533" lon="0.92617">
        <ele>111.65</ele>
        <time>2013-12-21T15:30:16Z</time>
      </trkpt>
      <trkpt lat="44.42538" lon="0.92618">
        <ele>111.65</ele>
        <time>2013-12-21T15:30:19Z</time>
      </trkpt>
      <trkpt lat="44.42554" lon="0.92621">
        <ele>111.65</ele>
        <time>2013-12-21T15:30:24Z</time>
      </trkpt>
      <trkpt lat="44.42585" lon="0.92621">
        <ele>111.65</ele>
        <time>2013-12-21T15:30:30Z</time>
      </trkpt>
      <trkpt lat="44.42618" lon="0.92621">
        <ele>110.69</ele>
        <time>2013-12-21T15:30:36Z</time>
      </trkpt>
      <trkpt lat="44.42622" lon="0.92618">
        <ele>110.69</ele>
        <time>2013-12-21T15:30:37Z</time>
      </trkpt>
      <trkpt lat="44.42626" lon="0.92614">
        <ele>110.69</ele>
        <time>2013-12-21T15:30:38Z</time>
      </trkpt>
      <trkpt lat="44.42629" lon="0.92608">
        <ele>110.21</ele>
        <time>2013-12-21T15:30:39Z</time>
      </trkpt>
      <trkpt lat="44.42632" lon="0.92601">
        <ele>110.21</ele>
        <time>2013-12-21T15:30:40Z</time>
      </trkpt>
      <trkpt lat="44.42634" lon="0.92594">
        <ele>109.73</ele>
        <time>2013-12-21T15:30:41Z</time>
      </trkpt>
      <trkpt lat="44.42636" lon="0.92587">
        <ele>109.73</ele>
        <time>2013-12-21T15:30:42Z</time>
      </trkpt>
      <trkpt lat="44.4267" lon="0.92478">
        <ele>107.81</ele>
        <time>2013-12-21T15:30:57Z</time>
      </trkpt>
      <trkpt lat="44.42674" lon="0.92463">
        <ele>107.81</ele>
        <time>2013-12-21T15:30:59Z</time>
      </trkpt>
      <trkpt lat="44.42676" lon="0.92448">
        <ele>107.32</ele>
        <time>2013-12-21T15:31:01Z</time>
      </trkpt>
      <trkpt lat="44.42677" lon="0.92405">
        <ele>106.36</ele>
        <time>2013-12-21T15:31:06Z</time>
      </trkpt>
      <trkpt lat="44.42677" lon="0.92396">
        <ele>105.88</ele>
        <time>2013-12-21T15:31:07Z</time>
      </trkpt>
      <trkpt lat="44.42678" lon="0.92387">
        <ele>105.88</ele>
        <time>2013-12-21T15:31:08Z</time>
      </trkpt>
      <trkpt lat="44.42679" lon="0.92378">
        <ele>105.4</ele>
        <time>2013-12-21T15:31:09Z</time>
      </trkpt>
      <trkpt lat="44.4268" lon="0.9237">
        <ele>105.4</ele>
        <time>2013-12-21T15:31:10Z</time>
      </trkpt>
      <trkpt lat="44.42682" lon="0.92361">
        <ele>104.92</ele>
        <time>2013-12-21T15:31:11Z</time>
      </trkpt>
      <trkpt lat="44.42691" lon="0.92309">
        <ele>103.96</ele>
        <time>2013-12-21T15:31:17Z</time>
      </trkpt>
      <trkpt lat="44.42694" lon="0.92301">
        <ele>103.96</ele>
        <time>2013-12-21T15:31:18Z</time>
      </trkpt>
      <trkpt lat="44.42708" lon="0.92271">
        <ele>103.48</ele>
        <time>2013-12-21T15:31:22Z</time>
      </trkpt>
      <trkpt lat="44.42726" lon="0.92202">
        <ele>103.48</ele>
        <time>2013-12-21T15:31:30Z</time>
      </trkpt>
      <trkpt lat="44.4273" lon="0.92194">
        <ele>103.48</ele>
        <time>2013-12-21T15:31:31Z</time>
      </trkpt>
      <trkpt lat="44.42781" lon="0.92083">
        <ele>103.48</ele>
        <time>2013-12-21T15:31:46Z</time>
      </trkpt>
      <trkpt lat="44.42813" lon="0.92013">
        <ele>104.44</ele>
        <time>2013-12-21T15:31:56Z</time>
      </trkpt>
      <trkpt lat="44.42818" lon="0.92007">
        <ele>104.44</ele>
        <time>2013-12-21T15:31:57Z</time>
      </trkpt>
      <trkpt lat="44.42823" lon="0.92002">
        <ele>104.44</ele>
        <time>2013-12-21T15:31:58Z</time>
      </trkpt>
      <trkpt lat="44.42828" lon="0.91998">
        <ele>104.44</ele>
        <time>2013-12-21T15:31:59Z</time>
      </trkpt>
      <trkpt lat="44.42832" lon="0.91995">
        <ele>104.44</ele>
        <time>2013-12-21T15:32:00Z</time>
      </trkpt>
      <trkpt lat="44.42864" lon="0.9197">
        <ele>104.92</ele>
        <time>2013-12-21T15:32:08Z</time>
      </trkpt>
      <trkpt lat="44.42878" lon="0.91957">
        <ele>105.4</ele>
        <time>2013-12-21T15:32:11Z</time>
      </trkpt>
      <trkpt lat="44.42973" lon="0.91875">
        <ele>106.36</ele>
        <time>2013-12-21T15:32:28Z</time>
      </trkpt>
      <trkpt lat="44.43021" lon="0.91844">
        <ele>108.29</ele>
        <time>2013-12-21T15:32:38Z</time>
      </trkpt>
      <trkpt lat="44.43029" lon="0.9184">
        <ele>108.29</ele>
        <time>2013-12-21T15:32:40Z</time>
      </trkpt>
      <trkpt lat="44.43046" lon="0.91831">
        <ele>108.77</ele>
        <time>2013-12-21T15:32:44Z</time>
      </trkpt>
      <trkpt lat="44.4309" lon="0.91805">
        <ele>108.77</ele>
        <time>2013-12-21T15:32:54Z</time>
      </trkpt>
      <trkpt lat="44.43105" lon="0.91792">
        <ele>108.77</ele>
        <time>2013-12-21T15:32:58Z</time>
      </trkpt>
      <trkpt lat="44.43108" lon="0.91788">
        <ele>108.77</ele>
        <time>2013-12-21T15:32:59Z</time>
      </trkpt>
      <trkpt lat="44.43118" lon="0.91777">
        <ele>108.29</ele>
        <time>2013-12-21T15:33:02Z</time>
      </trkpt>
      <trkpt lat="44.43122" lon="0.91772">
        <ele>108.29</ele>
        <time>2013-12-21T15:33:03Z</time>
      </trkpt>
      <trkpt lat="44.4313" lon="0.91764">
        <ele>108.29</ele>
        <time>2013-12-21T15:33:05Z</time>
      </trkpt>
      <trkpt lat="44.43139" lon="0.91757">
        <ele>107.81</ele>
        <time>2013-12-21T15:33:07Z</time>
      </trkpt>
      <trkpt lat="44.43149" lon="0.91751">
        <ele>107.81</ele>
        <time>2013-12-21T15:33:09Z</time>
      </trkpt>
      <trkpt lat="44.43212" lon="0.91723">
        <ele>106.36</ele>
        <time>2013-12-21T15:33:21Z</time>
      </trkpt>
      <trkpt lat="44.43269" lon="0.91676">
        <ele>108.77</ele>
        <time>2013-12-21T15:33:33Z</time>
      </trkpt>
      <trkpt lat="44.43297" lon="0.9166">
        <ele>107.81</ele>
        <time>2013-12-21T15:33:38Z</time>
      </trkpt>
      <trkpt lat="44.43383" lon="0.9162">
        <ele>103.96</ele>
        <time>2013-12-21T15:33:50Z</time>
      </trkpt>
      <trkpt lat="44.43417" lon="0.916">
        <ele>102.52</ele>
        <time>2013-12-21T15:33:55Z</time>
      </trkpt>
      <trkpt lat="44.43423" lon="0.91595">
        <ele>102.04</ele>
        <time>2013-12-21T15:33:56Z</time>
      </trkpt>
      <trkpt lat="44.43466" lon="0.91555">
        <ele>102.04</ele>
        <time>2013-12-21T15:34:04Z</time>
      </trkpt>
      <trkpt lat="44.4347" lon="0.91554">
        <ele>102.52</ele>
        <time>2013-12-21T15:34:05Z</time>
      </trkpt>
      <trkpt lat="44.43474" lon="0.91556">
        <ele>102.52</ele>
        <time>2013-12-21T15:34:06Z</time>
      </trkpt>
      <trkpt lat="44.43477" lon="0.91559">
        <ele>102.52</ele>
        <time>2013-12-21T15:34:07Z</time>
      </trkpt>
      <trkpt lat="44.43479" lon="0.91564">
        <ele>103</ele>
        <time>2013-12-21T15:34:08Z</time>
      </trkpt>
      <trkpt lat="44.4349" lon="0.9161">
        <ele>104.44</ele>
        <time>2013-12-21T15:34:18Z</time>
      </trkpt>
      <trkpt lat="44.43496" lon="0.91636">
        <ele>104.92</ele>
        <time>2013-12-21T15:34:23Z</time>
      </trkpt>
      <trkpt lat="44.43497" lon="0.91642">
        <ele>104.92</ele>
        <time>2013-12-21T15:34:24Z</time>
      </trkpt>
      <trkpt lat="44.43499" lon="0.91647">
        <ele>104.92</ele>
        <time>2013-12-21T15:34:25Z</time>
      </trkpt>
      <trkpt lat="44.43532" lon="0.91731">
        <ele>106.84</ele>
        <time>2013-12-21T15:34:41Z</time>
      </trkpt>
      <trkpt lat="44.43561" lon="0.9179">
        <ele>109.73</ele>
        <time>2013-12-21T15:34:55Z</time>
      </trkpt>
      <trkpt lat="44.43585" lon="0.91834">
        <ele>111.65</ele>
        <time>2013-12-21T15:35:06Z</time>
      </trkpt>
      <trkpt lat="44.43616" lon="0.91881">
        <ele>112.61</ele>
        <time>2013-12-21T15:35:19Z</time>
      </trkpt>
      <trkpt lat="44.43656" lon="0.91948">
        <ele>110.69</ele>
        <time>2013-12-21T15:35:31Z</time>
      </trkpt>
      <trkpt lat="44.43678" lon="0.91975">
        <ele>111.17</ele>
        <time>2013-12-21T15:35:36Z</time>
      </trkpt>
      <trkpt lat="44.43683" lon="0.9198">
        <ele>111.65</ele>
        <time>2013-12-21T15:35:37Z</time>
      </trkpt>
      <trkpt lat="44.43687" lon="0.91985">
        <ele>112.13</ele>
        <time>2013-12-21T15:35:38Z</time>
      </trkpt>
      <trkpt lat="44.437" lon="0.91999">
        <ele>113.57</ele>
        <time>2013-12-21T15:35:41Z</time>
      </trkpt>
      <trkpt lat="44.43704" lon="0.92004">
        <ele>114.05</ele>
        <time>2013-12-21T15:35:42Z</time>
      </trkpt>
      <trkpt lat="44.43761" lon="0.92056">
        <ele>119.82</ele>
        <time>2013-12-21T15:35:55Z</time>
      </trkpt>
      <trkpt lat="44.43766" lon="0.92061">
        <ele>119.82</ele>
        <time>2013-12-21T15:35:56Z</time>
      </trkpt>
      <trkpt lat="44.43771" lon="0.92066">
        <ele>120.3</ele>
        <time>2013-12-21T15:35:57Z</time>
      </trkpt>
      <trkpt lat="44.43776" lon="0.9207">
        <ele>120.3</ele>
        <time>2013-12-21T15:35:58Z</time>
      </trkpt>
      <trkpt lat="44.43796" lon="0.92084">
        <ele>120.78</ele>
        <time>2013-12-21T15:36:02Z</time>
      </trkpt>
      <trkpt lat="44.43804" lon="0.92089">
        <ele>121.26</ele>
        <time>2013-12-21T15:36:04Z</time>
      </trkpt>
      <trkpt lat="44.43808" lon="0.92092">
        <ele>121.26</ele>
        <time>2013-12-21T15:36:05Z</time>
      </trkpt>
      <trkpt lat="44.43822" lon="0.92109">
        <ele>121.26</ele>
        <time>2013-12-21T15:36:10Z</time>
      </trkpt>
      <trkpt lat="44.43824" lon="0.92112">
        <ele>121.26</ele>
        <time>2013-12-21T15:36:11Z</time>
      </trkpt>
      <trkpt lat="44.43826" lon="0.92114">
        <ele>120.78</ele>
        <time>2013-12-21T15:36:12Z</time>
      </trkpt>
      <trkpt lat="44.43847" lon="0.92145">
        <ele>119.82</ele>
        <time>2013-12-21T15:36:20Z</time>
      </trkpt>
      <trkpt lat="44.4385" lon="0.92149">
        <ele>119.82</ele>
        <time>2013-12-21T15:36:21Z</time>
      </trkpt>
      <trkpt lat="44.43861" lon="0.92164">
        <ele>119.34</ele>
        <time>2013-12-21T15:36:25Z</time>
      </trkpt>
      <trkpt lat="44.43862" lon="0.92166">
        <ele>119.82</ele>
        <time>2013-12-21T15:36:37Z</time>
      </trkpt>
      <trkpt lat="44.43861" lon="0.92165">
        <ele>120.78</ele>
        <time>2013-12-21T15:36:57Z</time>
      </trkpt>
      <trkpt lat="44.43862" lon="0.92169">
        <ele>119.82</ele>
        <time>2013-12-21T15:37:09Z</time>
      </trkpt>
      <trkpt lat="44.43861" lon="0.9217">
        <ele>119.82</ele>
        <time>2013-12-21T15:37:27Z</time>
      </trkpt>
      <trkpt lat="44.43862" lon="0.92169">
        <ele>118.86</ele>
        <time>2013-12-21T15:37:41Z</time>
      </trkpt>
      <trkpt lat="44.43862" lon="0.9217">
        <ele>118.86</ele>
        <time>2013-12-21T15:38:02Z</time>
      </trkpt>
      <trkpt lat="44.43861" lon="0.9217">
        <ele>118.86</ele>
        <time>2013-12-21T15:38:29Z</time>
      </trkpt>
      <trkpt lat="44.43861" lon="0.92171">
        <ele>119.34</ele>
        <time>2013-12-21T15:38:54Z</time>
      </trkpt>
      <trkpt lat="44.43861" lon="0.92171">
        <ele>119.82</ele>
        <time>2013-12-21T15:39:18Z</time>
      </trkpt>
      <trkpt lat="44.43861" lon="0.92171">
        <ele>119.82</ele>
        <time>2013-12-21T15:39:52Z</time>
      </trkpt>
      <trkpt lat="44.43862" lon="0.92171">
        <ele>119.82</ele>
        <time>2013-12-21T15:40:07Z</time>
      </trkpt>
      <trkpt lat="44.43863" lon="0.92171">
        <ele>117.9</ele>
        <time>2013-12-21T15:40:29Z</time>
      </trkpt>
      <trkpt lat="44.43863" lon="0.92171">
        <ele>117.42</ele>
        <time>2013-12-21T15:40:47Z</time>
      </trkpt>
      <trkpt lat="44.43863" lon="0.92172">
        <ele>117.9</ele>
        <time>2013-12-21T15:41:11Z</time>
      </trkpt>
      <trkpt lat="44.43863" lon="0.92169">
        <ele>117.42</ele>
        <time>2013-12-21T15:41:33Z</time>
      </trkpt>
      <trkpt lat="44.43862" lon="0.92167">
        <ele>117.42</ele>
        <time>2013-12-21T15:41:34Z</time>
      </trkpt>
      <trkpt lat="44.43861" lon="0.92164">
        <ele>117.42</ele>
        <time>2013-12-21T15:41:38Z</time>
      </trkpt>
      <trkpt lat="44.4386" lon="0.92162">
        <ele>117.42</ele>
        <time>2013-12-21T15:41:39Z</time>
      </trkpt>
      <trkpt lat="44.43859" lon="0.92159">
        <ele>116.94</ele>
        <time>2013-12-21T15:41:40Z</time>
      </trkpt>
      <trkpt lat="44.43859" lon="0.92156">
        <ele>116.94</ele>
        <time>2013-12-21T15:41:41Z</time>
      </trkpt>
      <trkpt lat="44.4386" lon="0.92152">
        <ele>116.94</ele>
        <time>2013-12-21T15:41:42Z</time>
      </trkpt>
      <trkpt lat="44.43861" lon="0.92149">
        <ele>116.94</ele>
        <time>2013-12-21T15:41:43Z</time>
      </trkpt>
      <trkpt lat="44.43863" lon="0.92146">
        <ele>116.46</ele>
        <time>2013-12-21T15:41:44Z</time>
      </trkpt>
      <trkpt lat="44.43865" lon="0.92143">
        <ele>116.46</ele>
        <time>2013-12-21T15:41:45Z</time>
      </trkpt>
      <trkpt lat="44.43902" lon="0.92084">
        <ele>115.01</ele>
        <time>2013-12-21T15:41:56Z</time>
      </trkpt>
      <trkpt lat="44.43959" lon="0.91997">
        <ele>111.65</ele>
        <time>2013-12-21T15:42:08Z</time>
      </trkpt>
      <trkpt lat="44.44051" lon="0.9188">
        <ele>106.36</ele>
        <time>2013-12-21T15:42:24Z</time>
      </trkpt>
      <trkpt lat="44.44146" lon="0.91809">
        <ele>103.48</ele>
        <time>2013-12-21T15:42:39Z</time>
      </trkpt>
      <trkpt lat="44.44159" lon="0.91801">
        <ele>103</ele>
        <time>2013-12-21T15:42:41Z</time>
      </trkpt>
      <trkpt lat="44.44166" lon="0.91799">
        <ele>103</ele>
        <time>2013-12-21T15:42:42Z</time>
      </trkpt>
      <trkpt lat="44.44173" lon="0.918">
        <ele>103</ele>
        <time>2013-12-21T15:42:43Z</time>
      </trkpt>
      <trkpt lat="44.44179" lon="0.91802">
        <ele>103</ele>
        <time>2013-12-21T15:42:44Z</time>
      </trkpt>
      <trkpt lat="44.44183" lon="0.91806">
        <ele>103</ele>
        <time>2013-12-21T15:42:45Z</time>
      </trkpt>
      <trkpt lat="44.44186" lon="0.91811">
        <ele>103</ele>
        <time>2013-12-21T15:42:46Z</time>
      </trkpt>
      <trkpt lat="44.4419" lon="0.91817">
        <ele>103</ele>
        <time>2013-12-21T15:42:47Z</time>
      </trkpt>
      <trkpt lat="44.44218" lon="0.91848">
        <ele>103.48</ele>
        <time>2013-12-21T15:42:53Z</time>
      </trkpt>
      <trkpt lat="44.4423" lon="0.91854">
        <ele>103.96</ele>
        <time>2013-12-21T15:42:55Z</time>
      </trkpt>
      <trkpt lat="44.44256" lon="0.9186">
        <ele>104.92</ele>
        <time>2013-12-21T15:42:59Z</time>
      </trkpt>
      <trkpt lat="44.44262" lon="0.9186">
        <ele>104.92</ele>
        <time>2013-12-21T15:43:00Z</time>
      </trkpt>
      <trkpt lat="44.44275" lon="0.91858">
        <ele>105.4</ele>
        <time>2013-12-21T15:43:02Z</time>
      </trkpt>
      <trkpt lat="44.44315" lon="0.91846">
        <ele>105.4</ele>
        <time>2013-12-21T15:43:08Z</time>
      </trkpt>
      <trkpt lat="44.44322" lon="0.91845">
        <ele>105.4</ele>
        <time>2013-12-21T15:43:09Z</time>
      </trkpt>
      <trkpt lat="44.44385" lon="0.91821">
        <ele>104.44</ele>
        <time>2013-12-21T15:43:19Z</time>
      </trkpt>
      <trkpt lat="44.44468" lon="0.91758">
        <ele>102.52</ele>
        <time>2013-12-21T15:43:33Z</time>
      </trkpt>
      <trkpt lat="44.44513" lon="0.91728">
        <ele>100.6</ele>
        <time>2013-12-21T15:43:40Z</time>
      </trkpt>
      <trkpt lat="44.446" lon="0.91702">
        <ele>97.23</ele>
        <time>2013-12-21T15:43:52Z</time>
      </trkpt>
      <trkpt lat="44.44609" lon="0.91703">
        <ele>96.27</ele>
        <time>2013-12-21T15:43:53Z</time>
      </trkpt>
      <trkpt lat="44.44637" lon="0.91709">
        <ele>93.87</ele>
        <time>2013-12-21T15:43:56Z</time>
      </trkpt>
      <trkpt lat="44.44698" lon="0.91697">
        <ele>89.06</ele>
        <time>2013-12-21T15:44:02Z</time>
      </trkpt>
      <trkpt lat="44.44737" lon="0.91676">
        <ele>84.73</ele>
        <time>2013-12-21T15:44:06Z</time>
      </trkpt>
      <trkpt lat="44.44746" lon="0.91668">
        <ele>83.77</ele>
        <time>2013-12-21T15:44:07Z</time>
      </trkpt>
      <trkpt lat="44.44754" lon="0.91659">
        <ele>82.81</ele>
        <time>2013-12-21T15:44:08Z</time>
      </trkpt>
      <trkpt lat="44.44761" lon="0.91648">
        <ele>81.85</ele>
        <time>2013-12-21T15:44:09Z</time>
      </trkpt>
      <trkpt lat="44.44768" lon="0.91638">
        <ele>80.89</ele>
        <time>2013-12-21T15:44:10Z</time>
      </trkpt>
      <trkpt lat="44.44806" lon="0.91585">
        <ele>72.72</ele>
        <time>2013-12-21T15:44:18Z</time>
      </trkpt>
      <trkpt lat="44.44809" lon="0.91585">
        <ele>71.76</ele>
        <time>2013-12-21T15:44:28Z</time>
      </trkpt>
      <trkpt lat="44.44808" lon="0.91585">
        <ele>70.31</ele>
        <time>2013-12-21T15:44:49Z</time>
      </trkpt>
      <trkpt lat="44.44808" lon="0.91584">
        <ele>69.83</ele>
        <time>2013-12-21T15:45:07Z</time>
      </trkpt>
      <trkpt lat="44.44809" lon="0.91584">
        <ele>67.91</ele>
        <time>2013-12-21T15:45:32Z</time>
      </trkpt>
      <trkpt lat="44.4481" lon="0.91584">
        <ele>66.95</ele>
        <time>2013-12-21T15:45:56Z</time>
      </trkpt>
      <trkpt lat="44.4481" lon="0.91585">
        <ele>67.43</ele>
        <time>2013-12-21T15:46:12Z</time>
      </trkpt>
      <trkpt lat="44.44825" lon="0.91596">
        <ele>66.47</ele>
        <time>2013-12-21T15:46:25Z</time>
      </trkpt>
      <trkpt lat="44.44829" lon="0.91597">
        <ele>66.47</ele>
        <time>2013-12-21T15:46:26Z</time>
      </trkpt>
      <trkpt lat="44.44859" lon="0.916">
        <ele>64.55</ele>
        <time>2013-12-21T15:46:31Z</time>
      </trkpt>
      <trkpt lat="44.44866" lon="0.91597">
        <ele>64.07</ele>
        <time>2013-12-21T15:46:32Z</time>
      </trkpt>
      <trkpt lat="44.44874" lon="0.91593">
        <ele>63.58</ele>
        <time>2013-12-21T15:46:33Z</time>
      </trkpt>
      <trkpt lat="44.4488" lon="0.91585">
        <ele>63.1</ele>
        <time>2013-12-21T15:46:34Z</time>
      </trkpt>
      <trkpt lat="44.44885" lon="0.91575">
        <ele>63.1</ele>
        <time>2013-12-21T15:46:35Z</time>
      </trkpt>
      <trkpt lat="44.44889" lon="0.91565">
        <ele>63.1</ele>
        <time>2013-12-21T15:46:36Z</time>
      </trkpt>
      <trkpt lat="44.44891" lon="0.91553">
        <ele>62.62</ele>
        <time>2013-12-21T15:46:37Z</time>
      </trkpt>
      <trkpt lat="44.44892" lon="0.91542">
        <ele>62.62</ele>
        <time>2013-12-21T15:46:38Z</time>
      </trkpt>
      <trkpt lat="44.44898" lon="0.91507">
        <ele>62.62</ele>
        <time>2013-12-21T15:46:41Z</time>
      </trkpt>
      <trkpt lat="44.44901" lon="0.91497">
        <ele>62.14</ele>
        <time>2013-12-21T15:46:42Z</time>
      </trkpt>
      <trkpt lat="44.44904" lon="0.91487">
        <ele>62.14</ele>
        <time>2013-12-21T15:46:43Z</time>
      </trkpt>
      <trkpt lat="44.44909" lon="0.91478">
        <ele>62.14</ele>
        <time>2013-12-21T15:46:44Z</time>
      </trkpt>
      <trkpt lat="44.44914" lon="0.91469">
        <ele>62.14</ele>
        <time>2013-12-21T15:46:45Z</time>
      </trkpt>
      <trkpt lat="44.44919" lon="0.9146">
        <ele>62.14</ele>
        <time>2013-12-21T15:46:46Z</time>
      </trkpt>
      <trkpt lat="44.44925" lon="0.91452">
        <ele>62.14</ele>
        <time>2013-12-21T15:46:47Z</time>
      </trkpt>
      <trkpt lat="44.44932" lon="0.91446">
        <ele>62.14</ele>
        <time>2013-12-21T15:46:48Z</time>
      </trkpt>
      <trkpt lat="44.44939" lon="0.9144">
        <ele>62.14</ele>
        <time>2013-12-21T15:46:49Z</time>
      </trkpt>
      <trkpt lat="44.44946" lon="0.91434">
        <ele>61.66</ele>
        <time>2013-12-21T15:46:50Z</time>
      </trkpt>
      <trkpt lat="44.45032" lon="0.91374">
        <ele>61.66</ele>
        <time>2013-12-21T15:47:02Z</time>
      </trkpt>
      <trkpt lat="44.45037" lon="0.91368">
        <ele>61.66</ele>
        <time>2013-12-21T15:47:03Z</time>
      </trkpt>
      <trkpt lat="44.45048" lon="0.91355">
        <ele>61.18</ele>
        <time>2013-12-21T15:47:05Z</time>
      </trkpt>
      <trkpt lat="44.45074" lon="0.91315">
        <ele>61.18</ele>
        <time>2013-12-21T15:47:11Z</time>
      </trkpt>
      <trkpt lat="44.45078" lon="0.91309">
        <ele>61.18</ele>
        <time>2013-12-21T15:47:12Z</time>
      </trkpt>
      <trkpt lat="44.45081" lon="0.91305">
        <ele>61.18</ele>
        <time>2013-12-21T15:47:13Z</time>
      </trkpt>
      <trkpt lat="44.45085" lon="0.91304">
        <ele>61.18</ele>
        <time>2013-12-21T15:47:14Z</time>
      </trkpt>
      <trkpt lat="44.45088" lon="0.91306">
        <ele>61.18</ele>
        <time>2013-12-21T15:47:15Z</time>
      </trkpt>
      <trkpt lat="44.45092" lon="0.9131">
        <ele>61.18</ele>
        <time>2013-12-21T15:47:16Z</time>
      </trkpt>
      <trkpt lat="44.45095" lon="0.91314">
        <ele>61.66</ele>
        <time>2013-12-21T15:47:17Z</time>
      </trkpt>
      <trkpt lat="44.45099" lon="0.91319">
        <ele>61.66</ele>
        <time>2013-12-21T15:47:18Z</time>
      </trkpt>
      <trkpt lat="44.45131" lon="0.91358">
        <ele>62.14</ele>
        <time>2013-12-21T15:47:26Z</time>
      </trkpt>
      <trkpt lat="44.45135" lon="0.91362">
        <ele>62.14</ele>
        <time>2013-12-21T15:47:27Z</time>
      </trkpt>
      <trkpt lat="44.45192" lon="0.91436">
        <ele>63.1</ele>
        <time>2013-12-21T15:47:41Z</time>
      </trkpt>
      <trkpt lat="44.45232" lon="0.91491">
        <ele>63.1</ele>
        <time>2013-12-21T15:47:51Z</time>
      </trkpt>
      <trkpt lat="44.45236" lon="0.91498">
        <ele>63.1</ele>
        <time>2013-12-21T15:47:52Z</time>
      </trkpt>
      <trkpt lat="44.45249" lon="0.91517">
        <ele>63.1</ele>
        <time>2013-12-21T15:47:55Z</time>
      </trkpt>
      <trkpt lat="44.45254" lon="0.91523">
        <ele>63.58</ele>
        <time>2013-12-21T15:47:56Z</time>
      </trkpt>
      <trkpt lat="44.4529" lon="0.91563">
        <ele>63.58</ele>
        <time>2013-12-21T15:48:03Z</time>
      </trkpt>
      <trkpt lat="44.45372" lon="0.91622">
        <ele>62.14</ele>
        <time>2013-12-21T15:48:19Z</time>
      </trkpt>
      <trkpt lat="44.454" lon="0.91647">
        <ele>62.62</ele>
        <time>2013-12-21T15:48:25Z</time>
      </trkpt>
      <trkpt lat="44.4546" lon="0.91728">
        <ele>61.18</ele>
        <time>2013-12-21T15:48:37Z</time>
      </trkpt>
      <trkpt lat="44.45473" lon="0.91751">
        <ele>60.7</ele>
        <time>2013-12-21T15:48:40Z</time>
      </trkpt>
      <trkpt lat="44.45506" lon="0.91831">
        <ele>61.66</ele>
        <time>2013-12-21T15:48:51Z</time>
      </trkpt>
      <trkpt lat="44.45509" lon="0.91837">
        <ele>61.66</ele>
        <time>2013-12-21T15:48:52Z</time>
      </trkpt>
      <trkpt lat="44.45515" lon="0.91848">
        <ele>62.14</ele>
        <time>2013-12-21T15:48:54Z</time>
      </trkpt>
      <trkpt lat="44.45517" lon="0.91854">
        <ele>62.14</ele>
        <time>2013-12-21T15:48:55Z</time>
      </trkpt>
      <trkpt lat="44.45519" lon="0.9186">
        <ele>62.14</ele>
        <time>2013-12-21T15:48:56Z</time>
      </trkpt>
      <trkpt lat="44.4552" lon="0.91866">
        <ele>62.14</ele>
        <time>2013-12-21T15:48:57Z</time>
      </trkpt>
      <trkpt lat="44.4552" lon="0.91873">
        <ele>62.14</ele>
        <time>2013-12-21T15:48:58Z</time>
      </trkpt>
      <trkpt lat="44.4552" lon="0.91878">
        <ele>62.14</ele>
        <time>2013-12-21T15:48:59Z</time>
      </trkpt>
      <trkpt lat="44.45519" lon="0.91883">
        <ele>62.14</ele>
        <time>2013-12-21T15:49:00Z</time>
      </trkpt>
      <trkpt lat="44.45518" lon="0.91887">
        <ele>62.14</ele>
        <time>2013-12-21T15:49:01Z</time>
      </trkpt>
      <trkpt lat="44.45518" lon="0.91892">
        <ele>62.62</ele>
        <time>2013-12-21T15:49:02Z</time>
      </trkpt>
      <trkpt lat="44.45517" lon="0.91903">
        <ele>63.1</ele>
        <time>2013-12-21T15:49:05Z</time>
      </trkpt>
      <trkpt lat="44.45517" lon="0.91905">
        <ele>63.1</ele>
        <time>2013-12-21T15:49:06Z</time>
      </trkpt>
      <trkpt lat="44.45517" lon="0.91906">
        <ele>62.14</ele>
        <time>2013-12-21T15:49:19Z</time>
      </trkpt>
      <trkpt lat="44.45518" lon="0.91906">
        <ele>61.66</ele>
        <time>2013-12-21T15:49:49Z</time>
      </trkpt>
      <trkpt lat="44.45519" lon="0.91905">
        <ele>62.62</ele>
        <time>2013-12-21T15:50:10Z</time>
      </trkpt>
      <trkpt lat="44.45522" lon="0.91908">
        <ele>63.1</ele>
        <time>2013-12-21T15:50:37Z</time>
      </trkpt>
      <trkpt lat="44.45563" lon="0.91949">
        <ele>61.66</ele>
        <time>2013-12-21T15:50:48Z</time>
      </trkpt>
      <trkpt lat="44.45588" lon="0.91973">
        <ele>61.18</ele>
        <time>2013-12-21T15:50:54Z</time>
      </trkpt>
      <trkpt lat="44.45595" lon="0.91982">
        <ele>60.7</ele>
        <time>2013-12-21T15:50:56Z</time>
      </trkpt>
      <trkpt lat="44.45621" lon="0.92005">
        <ele>60.22</ele>
        <time>2013-12-21T15:51:07Z</time>
      </trkpt>
      <trkpt lat="44.45638" lon="0.92022">
        <ele>59.74</ele>
        <time>2013-12-21T15:51:19Z</time>
      </trkpt>
      <trkpt lat="44.45651" lon="0.92035">
        <ele>59.74</ele>
        <time>2013-12-21T15:51:29Z</time>
      </trkpt>
      <trkpt lat="44.45658" lon="0.9204">
        <ele>59.74</ele>
        <time>2013-12-21T15:51:33Z</time>
      </trkpt>
      <trkpt lat="44.45664" lon="0.92045">
        <ele>59.74</ele>
        <time>2013-12-21T15:51:37Z</time>
      </trkpt>
      <trkpt lat="44.45686" lon="0.92067">
        <ele>60.22</ele>
        <time>2013-12-21T15:51:49Z</time>
      </trkpt>
      <trkpt lat="44.45706" lon="0.92092">
        <ele>60.22</ele>
        <time>2013-12-21T15:52:01Z</time>
      </trkpt>
      <trkpt lat="44.45726" lon="0.92116">
        <ele>59.74</ele>
        <time>2013-12-21T15:52:12Z</time>
      </trkpt>
      <trkpt lat="44.45747" lon="0.92143">
        <ele>62.14</ele>
        <time>2013-12-21T15:52:24Z</time>
      </trkpt>
      <trkpt lat="44.45766" lon="0.92166">
        <ele>62.62</ele>
        <time>2013-12-21T15:52:35Z</time>
      </trkpt>
      <trkpt lat="44.45773" lon="0.92172">
        <ele>62.62</ele>
        <time>2013-12-21T15:52:40Z</time>
      </trkpt>
      <trkpt lat="44.45777" lon="0.92178">
        <ele>62.14</ele>
        <time>2013-12-21T15:52:45Z</time>
      </trkpt>
      <trkpt lat="44.45781" lon="0.92182">
        <ele>61.66</ele>
        <time>2013-12-21T15:52:57Z</time>
      </trkpt>
      <trkpt lat="44.45784" lon="0.92185">
        <ele>60.22</ele>
        <time>2013-12-21T15:53:31Z</time>
      </trkpt>
      <trkpt lat="44.45808" lon="0.92207">
        <ele>59.26</ele>
        <time>2013-12-21T15:53:40Z</time>
      </trkpt>
      <trkpt lat="44.45821" lon="0.92222">
        <ele>58.3</ele>
        <time>2013-12-21T15:53:44Z</time>
      </trkpt>
      <trkpt lat="44.45852" lon="0.92256">
        <ele>59.26</ele>
        <time>2013-12-21T15:53:59Z</time>
      </trkpt>
      <trkpt lat="44.45885" lon="0.92289">
        <ele>59.74</ele>
        <time>2013-12-21T15:54:13Z</time>
      </trkpt>
      <trkpt lat="44.4593" lon="0.92322">
        <ele>60.22</ele>
        <time>2013-12-21T15:54:30Z</time>
      </trkpt>
      <trkpt lat="44.45948" lon="0.92344">
        <ele>60.7</ele>
        <time>2013-12-21T15:54:39Z</time>
      </trkpt>
      <trkpt lat="44.45952" lon="0.92343">
        <ele>61.66</ele>
        <time>2013-12-21T15:54:50Z</time>
      </trkpt>
      <trkpt lat="44.45952" lon="0.92344">
        <ele>62.14</ele>
        <time>2013-12-21T15:55:07Z</time>
      </trkpt>
      <trkpt lat="44.45946" lon="0.92338">
        <ele>61.66</ele>
        <time>2013-12-21T15:55:11Z</time>
      </trkpt>
      <trkpt lat="44.45915" lon="0.92311">
        <ele>61.18</ele>
        <time>2013-12-21T15:55:24Z</time>
      </trkpt>
      <trkpt lat="44.45904" lon="0.92302">
        <ele>61.18</ele>
        <time>2013-12-21T15:55:34Z</time>
      </trkpt>
      <trkpt lat="44.45912" lon="0.92308">
        <ele>61.18</ele>
        <time>2013-12-21T15:55:44Z</time>
      </trkpt>
      <trkpt lat="44.45912" lon="0.92309">
        <ele>60.22</ele>
        <time>2013-12-21T15:56:10Z</time>
      </trkpt>
      <trkpt lat="44.45926" lon="0.92319">
        <ele>60.7</ele>
        <time>2013-12-21T15:56:19Z</time>
      </trkpt>
      <trkpt lat="44.45937" lon="0.92329">
        <ele>60.22</ele>
        <time>2013-12-21T15:56:24Z</time>
      </trkpt>
      <trkpt lat="44.45941" lon="0.92333">
        <ele>60.22</ele>
        <time>2013-12-21T15:56:26Z</time>
      </trkpt>
      <trkpt lat="44.45946" lon="0.9234">
        <ele>60.22</ele>
        <time>2013-12-21T15:56:29Z</time>
      </trkpt>
      <trkpt lat="44.45953" lon="0.92344">
        <ele>60.22</ele>
        <time>2013-12-21T15:56:34Z</time>
      </trkpt>
      <trkpt lat="44.45954" lon="0.92343">
        <ele>60.22</ele>
        <time>2013-12-21T15:56:35Z</time>
      </trkpt>
      <trkpt lat="44.45956" lon="0.92342">
        <ele>60.7</ele>
        <time>2013-12-21T15:56:36Z</time>
      </trkpt>
      <trkpt lat="44.45986" lon="0.92317">
        <ele>61.66</ele>
        <time>2013-12-21T15:56:49Z</time>
      </trkpt>
      <trkpt lat="44.45994" lon="0.92309">
        <ele>61.66</ele>
        <time>2013-12-21T15:56:52Z</time>
      </trkpt>
      <trkpt lat="44.46008" lon="0.92294">
        <ele>61.66</ele>
        <time>2013-12-21T15:56:56Z</time>
      </trkpt>
      <trkpt lat="44.46046" lon="0.92237">
        <ele>63.1</ele>
        <time>2013-12-21T15:57:11Z</time>
      </trkpt>
      <trkpt lat="44.46094" lon="0.92163">
        <ele>62.14</ele>
        <time>2013-12-21T15:57:25Z</time>
      </trkpt>
      <trkpt lat="44.46099" lon="0.92159">
        <ele>62.14</ele>
        <time>2013-12-21T15:57:26Z</time>
      </trkpt>
      <trkpt lat="44.46105" lon="0.92158">
        <ele>62.14</ele>
        <time>2013-12-21T15:57:27Z</time>
      </trkpt>
      <trkpt lat="44.46111" lon="0.92158">
        <ele>62.14</ele>
        <time>2013-12-21T15:57:28Z</time>
      </trkpt>
      <trkpt lat="44.46116" lon="0.92161">
        <ele>61.66</ele>
        <time>2013-12-21T15:57:29Z</time>
      </trkpt>
      <trkpt lat="44.46121" lon="0.92165">
        <ele>61.66</ele>
        <time>2013-12-21T15:57:30Z</time>
      </trkpt>
      <trkpt lat="44.46126" lon="0.92169">
        <ele>61.66</ele>
        <time>2013-12-21T15:57:31Z</time>
      </trkpt>
      <trkpt lat="44.4613" lon="0.92174">
        <ele>61.66</ele>
        <time>2013-12-21T15:57:32Z</time>
      </trkpt>
      <trkpt lat="44.46134" lon="0.92177">
        <ele>61.66</ele>
        <time>2013-12-21T15:57:33Z</time>
      </trkpt>
      <trkpt lat="44.46173" lon="0.92205">
        <ele>60.22</ele>
        <time>2013-12-21T15:57:43Z</time>
      </trkpt>
      <trkpt lat="44.46177" lon="0.92207">
        <ele>60.22</ele>
        <time>2013-12-21T15:57:44Z</time>
      </trkpt>
      <trkpt lat="44.46181" lon="0.9221">
        <ele>60.22</ele>
        <time>2013-12-21T15:57:45Z</time>
      </trkpt>
      <trkpt lat="44.46184" lon="0.92212">
        <ele>60.22</ele>
        <time>2013-12-21T15:57:46Z</time>
      </trkpt>
      <trkpt lat="44.46188" lon="0.92214">
        <ele>60.22</ele>
        <time>2013-12-21T15:57:47Z</time>
      </trkpt>
      <trkpt lat="44.46228" lon="0.92241">
        <ele>59.74</ele>
        <time>2013-12-21T15:58:00Z</time>
      </trkpt>
      <trkpt lat="44.46251" lon="0.92257">
        <ele>59.74</ele>
        <time>2013-12-21T15:58:06Z</time>
      </trkpt>
      <trkpt lat="44.46302" lon="0.92289">
        <ele>59.26</ele>
        <time>2013-12-21T15:58:21Z</time>
      </trkpt>
      <trkpt lat="44.4635" lon="0.92326">
        <ele>59.74</ele>
        <time>2013-12-21T15:58:36Z</time>
      </trkpt>
      <trkpt lat="44.46356" lon="0.92332">
        <ele>59.74</ele>
        <time>2013-12-21T15:58:38Z</time>
      </trkpt>
      <trkpt lat="44.46359" lon="0.92336">
        <ele>59.26</ele>
        <time>2013-12-21T15:58:39Z</time>
      </trkpt>
      <trkpt lat="44.46362" lon="0.92339">
        <ele>59.26</ele>
        <time>2013-12-21T15:58:40Z</time>
      </trkpt>
      <trkpt lat="44.46365" lon="0.92343">
        <ele>59.26</ele>
        <time>2013-12-21T15:58:41Z</time>
      </trkpt>
      <trkpt lat="44.46368" lon="0.92347">
        <ele>59.26</ele>
        <time>2013-12-21T15:58:42Z</time>
      </trkpt>
      <trkpt lat="44.46372" lon="0.92351">
        <ele>59.26</ele>
        <time>2013-12-21T15:58:44Z</time>
      </trkpt>
      <trkpt lat="44.46375" lon="0.92352">
        <ele>59.26</ele>
        <time>2013-12-21T15:58:45Z</time>
      </trkpt>
      <trkpt lat="44.46378" lon="0.92352">
        <ele>58.78</ele>
        <time>2013-12-21T15:58:46Z</time>
      </trkpt>
      <trkpt lat="44.46382" lon="0.92349">
        <ele>58.78</ele>
        <time>2013-12-21T15:58:48Z</time>
      </trkpt>
      <trkpt lat="44.46384" lon="0.92346">
        <ele>58.78</ele>
        <time>2013-12-21T15:58:49Z</time>
      </trkpt>
      <trkpt lat="44.46385" lon="0.92342">
        <ele>58.78</ele>
        <time>2013-12-21T15:58:50Z</time>
      </trkpt>
      <trkpt lat="44.46387" lon="0.92338">
        <ele>58.78</ele>
        <time>2013-12-21T15:58:51Z</time>
      </trkpt>
      <trkpt lat="44.4641" lon="0.92295">
        <ele>58.78</ele>
        <time>2013-12-21T15:59:03Z</time>
      </trkpt>
      <trkpt lat="44.46429" lon="0.92253">
        <ele>59.74</ele>
        <time>2013-12-21T15:59:17Z</time>
      </trkpt>
      <trkpt lat="44.46449" lon="0.92211">
        <ele>60.22</ele>
        <time>2013-12-21T15:59:32Z</time>
      </trkpt>
      <trkpt lat="44.46464" lon="0.92184">
        <ele>60.22</ele>
        <time>2013-12-21T15:59:44Z</time>
      </trkpt>
      <trkpt lat="44.46479" lon="0.9217">
        <ele>60.22</ele>
        <time>2013-12-21T15:59:52Z</time>
      </trkpt>
      <trkpt lat="44.46505" lon="0.92151">
        <ele>59.74</ele>
        <time>2013-12-21T16:00:04Z</time>
      </trkpt>
      <trkpt lat="44.46537" lon="0.92126">
        <ele>60.22</ele>
        <time>2013-12-21T16:00:18Z</time>
      </trkpt>
      <trkpt lat="44.46567" lon="0.92106">
        <ele>60.7</ele>
        <time>2013-12-21T16:00:32Z</time>
      </trkpt>
      <trkpt lat="44.46598" lon="0.92083">
        <ele>61.66</ele>
        <time>2013-12-21T16:00:46Z</time>
      </trkpt>
      <trkpt lat="44.46626" lon="0.92061">
        <ele>60.7</ele>
        <time>2013-12-21T16:01:00Z</time>
      </trkpt>
      <trkpt lat="44.46657" lon="0.92038">
        <ele>60.22</ele>
        <time>2013-12-21T16:01:15Z</time>
      </trkpt>
      <trkpt lat="44.46684" lon="0.92019">
        <ele>60.7</ele>
        <time>2013-12-21T16:01:29Z</time>
      </trkpt>
      <trkpt lat="44.46711" lon="0.92">
        <ele>60.7</ele>
        <time>2013-12-21T16:01:42Z</time>
      </trkpt>
      <trkpt lat="44.46738" lon="0.91982">
        <ele>60.7</ele>
        <time>2013-12-21T16:01:55Z</time>
      </trkpt>
      <trkpt lat="44.46771" lon="0.91959">
        <ele>60.22</ele>
        <time>2013-12-21T16:02:09Z</time>
      </trkpt>
      <trkpt lat="44.46803" lon="0.91936">
        <ele>59.74</ele>
        <time>2013-12-21T16:02:23Z</time>
      </trkpt>
      <trkpt lat="44.46816" lon="0.91928">
        <ele>59.74</ele>
        <time>2013-12-21T16:02:29Z</time>
      </trkpt>
      <trkpt lat="44.4682" lon="0.91922">
        <ele>58.3</ele>
        <time>2013-12-21T16:02:40Z</time>
      </trkpt>
      <trkpt lat="44.4682" lon="0.91922">
        <ele>57.82</ele>
        <time>2013-12-21T16:02:42Z</time>
      </trkpt>
      <trkpt lat="44.46828" lon="0.91937">
        <ele>57.82</ele>
        <time>2013-12-21T16:02:51Z</time>
      </trkpt>
      <trkpt lat="44.46841" lon="0.91989">
        <ele>57.34</ele>
        <time>2013-12-21T16:03:06Z</time>
      </trkpt>
      <trkpt lat="44.46857" lon="0.92049">
        <ele>57.34</ele>
        <time>2013-12-21T16:03:20Z</time>
      </trkpt>
      <trkpt lat="44.46871" lon="0.9211">
        <ele>57.34</ele>
        <time>2013-12-21T16:03:34Z</time>
      </trkpt>
      <trkpt lat="44.4688" lon="0.92174">
        <ele>57.34</ele>
        <time>2013-12-21T16:03:47Z</time>
      </trkpt>
      <trkpt lat="44.46887" lon="0.92225">
        <ele>57.82</ele>
        <time>2013-12-21T16:03:58Z</time>
      </trkpt>
      <trkpt lat="44.46892" lon="0.92267">
        <ele>57.82</ele>
        <time>2013-12-21T16:04:08Z</time>
      </trkpt>
      <trkpt lat="44.46894" lon="0.92274">
        <ele>57.82</ele>
        <time>2013-12-21T16:04:11Z</time>
      </trkpt>
      <trkpt lat="44.46894" lon="0.92277">
        <ele>57.82</ele>
        <time>2013-12-21T16:04:12Z</time>
      </trkpt>
      <trkpt lat="44.46894" lon="0.92279">
        <ele>57.34</ele>
        <time>2013-12-21T16:04:13Z</time>
      </trkpt>
      <trkpt lat="44.46894" lon="0.9228">
        <ele>57.34</ele>
        <time>2013-12-21T16:04:14Z</time>
      </trkpt>
      <trkpt lat="44.46895" lon="0.92282">
        <ele>57.34</ele>
        <time>2013-12-21T16:04:15Z</time>
      </trkpt>
      <trkpt lat="44.46896" lon="0.92301">
        <ele>56.86</ele>
        <time>2013-12-21T16:04:29Z</time>
      </trkpt>
      <trkpt lat="44.469" lon="0.92331">
        <ele>56.37</ele>
        <time>2013-12-21T16:04:40Z</time>
      </trkpt>
      <trkpt lat="44.46908" lon="0.92385">
        <ele>56.37</ele>
        <time>2013-12-21T16:04:55Z</time>
      </trkpt>
      <trkpt lat="44.46918" lon="0.92474">
        <ele>55.89</ele>
        <time>2013-12-21T16:05:11Z</time>
      </trkpt>
      <trkpt lat="44.4692" lon="0.92504">
        <ele>55.89</ele>
        <time>2013-12-21T16:05:16Z</time>
      </trkpt>
      <trkpt lat="44.4692" lon="0.92516">
        <ele>55.41</ele>
        <time>2013-12-21T16:05:18Z</time>
      </trkpt>
      <trkpt lat="44.46907" lon="0.92568">
        <ele>54.93</ele>
        <time>2013-12-21T16:05:27Z</time>
      </trkpt>
      <trkpt lat="44.46905" lon="0.92573">
        <ele>54.45</ele>
        <time>2013-12-21T16:05:28Z</time>
      </trkpt>
      <trkpt lat="44.46903" lon="0.92578">
        <ele>54.45</ele>
        <time>2013-12-21T16:05:29Z</time>
      </trkpt>
      <trkpt lat="44.46887" lon="0.92638">
        <ele>57.34</ele>
        <time>2013-12-21T16:05:42Z</time>
      </trkpt>
      <trkpt lat="44.46905" lon="0.92697">
        <ele>58.78</ele>
        <time>2013-12-21T16:05:56Z</time>
      </trkpt>
      <trkpt lat="44.46914" lon="0.9272">
        <ele>59.26</ele>
        <time>2013-12-21T16:06:03Z</time>
      </trkpt>
      <trkpt lat="44.46916" lon="0.92723">
        <ele>59.26</ele>
        <time>2013-12-21T16:06:04Z</time>
      </trkpt>
      <trkpt lat="44.46917" lon="0.92725">
        <ele>59.26</ele>
        <time>2013-12-21T16:06:05Z</time>
      </trkpt>
      <trkpt lat="44.46919" lon="0.92728">
        <ele>59.26</ele>
        <time>2013-12-21T16:06:06Z</time>
      </trkpt>
      <trkpt lat="44.46919" lon="0.92732">
        <ele>59.74</ele>
        <time>2013-12-21T16:06:07Z</time>
      </trkpt>
      <trkpt lat="44.46919" lon="0.92735">
        <ele>59.74</ele>
        <time>2013-12-21T16:06:08Z</time>
      </trkpt>
      <trkpt lat="44.4692" lon="0.92739">
        <ele>59.74</ele>
        <time>2013-12-21T16:06:09Z</time>
      </trkpt>
      <trkpt lat="44.4692" lon="0.92742">
        <ele>59.74</ele>
        <time>2013-12-21T16:06:10Z</time>
      </trkpt>
      <trkpt lat="44.46921" lon="0.92745">
        <ele>60.22</ele>
        <time>2013-12-21T16:06:11Z</time>
      </trkpt>
      <trkpt lat="44.46921" lon="0.92749">
        <ele>60.22</ele>
        <time>2013-12-21T16:06:12Z</time>
      </trkpt>
      <trkpt lat="44.46926" lon="0.92789">
        <ele>61.18</ele>
        <time>2013-12-21T16:06:24Z</time>
      </trkpt>
      <trkpt lat="44.46925" lon="0.92826">
        <ele>61.18</ele>
        <time>2013-12-21T16:06:35Z</time>
      </trkpt>
      <trkpt lat="44.46925" lon="0.92829">
        <ele>61.18</ele>
        <time>2013-12-21T16:06:36Z</time>
      </trkpt>
      <trkpt lat="44.46925" lon="0.92832">
        <ele>61.66</ele>
        <time>2013-12-21T16:06:37Z</time>
      </trkpt>
      <trkpt lat="44.46925" lon="0.92835">
        <ele>61.66</ele>
        <time>2013-12-21T16:06:38Z</time>
      </trkpt>
      <trkpt lat="44.46924" lon="0.92838">
        <ele>61.66</ele>
        <time>2013-12-21T16:06:39Z</time>
      </trkpt>
      <trkpt lat="44.46926" lon="0.92884">
        <ele>62.14</ele>
        <time>2013-12-21T16:06:51Z</time>
      </trkpt>
      <trkpt lat="44.46935" lon="0.92956">
        <ele>61.66</ele>
        <time>2013-12-21T16:07:06Z</time>
      </trkpt>
      <trkpt lat="44.46944" lon="0.92981">
        <ele>61.18</ele>
        <time>2013-12-21T16:07:11Z</time>
      </trkpt>
      <trkpt lat="44.46984" lon="0.93065">
        <ele>59.74</ele>
        <time>2013-12-21T16:07:24Z</time>
      </trkpt>
      <trkpt lat="44.46989" lon="0.93079">
        <ele>59.74</ele>
        <time>2013-12-21T16:07:26Z</time>
      </trkpt>
      <trkpt lat="44.47001" lon="0.93172">
        <ele>60.22</ele>
        <time>2013-12-21T16:07:41Z</time>
      </trkpt>
      <trkpt lat="44.47019" lon="0.93258">
        <ele>60.22</ele>
        <time>2013-12-21T16:07:57Z</time>
      </trkpt>
      <trkpt lat="44.47022" lon="0.93269">
        <ele>60.7</ele>
        <time>2013-12-21T16:07:59Z</time>
      </trkpt>
      <trkpt lat="44.47023" lon="0.93274">
        <ele>60.7</ele>
        <time>2013-12-21T16:08:00Z</time>
      </trkpt>
      <trkpt lat="44.47025" lon="0.93279">
        <ele>60.7</ele>
        <time>2013-12-21T16:08:01Z</time>
      </trkpt>
      <trkpt lat="44.47026" lon="0.93285">
        <ele>60.7</ele>
        <time>2013-12-21T16:08:02Z</time>
      </trkpt>
      <trkpt lat="44.47027" lon="0.9329">
        <ele>60.7</ele>
        <time>2013-12-21T16:08:03Z</time>
      </trkpt>
      <trkpt lat="44.47045" lon="0.93344">
        <ele>60.7</ele>
        <time>2013-12-21T16:08:17Z</time>
      </trkpt>
      <trkpt lat="44.47065" lon="0.93398">
        <ele>60.7</ele>
        <time>2013-12-21T16:08:29Z</time>
      </trkpt>
      <trkpt lat="44.47084" lon="0.93444">
        <ele>61.18</ele>
        <time>2013-12-21T16:08:40Z</time>
      </trkpt>
      <trkpt lat="44.4709" lon="0.9346">
        <ele>61.66</ele>
        <time>2013-12-21T16:08:50Z</time>
      </trkpt>
      <trkpt lat="44.47091" lon="0.9346">
        <ele>61.66</ele>
        <time>2013-12-21T16:09:12Z</time>
      </trkpt>
      <trkpt lat="44.4709" lon="0.9346">
        <ele>61.66</ele>
        <time>2013-12-21T16:09:30Z</time>
      </trkpt>
      <trkpt lat="44.47094" lon="0.93463">
        <ele>61.66</ele>
        <time>2013-12-21T16:09:44Z</time>
      </trkpt>
      <trkpt lat="44.47108" lon="0.93489">
        <ele>62.14</ele>
        <time>2013-12-21T16:09:53Z</time>
      </trkpt>
      <trkpt lat="44.4711" lon="0.9349">
        <ele>62.14</ele>
        <time>2013-12-21T16:09:54Z</time>
      </trkpt>
      <trkpt lat="44.47112" lon="0.9349">
        <ele>62.14</ele>
        <time>2013-12-21T16:09:55Z</time>
      </trkpt>
      <trkpt lat="44.47115" lon="0.9349">
        <ele>62.14</ele>
        <time>2013-12-21T16:09:56Z</time>
      </trkpt>
      <trkpt lat="44.47117" lon="0.93489">
        <ele>62.14</ele>
        <time>2013-12-21T16:09:57Z</time>
      </trkpt>
      <trkpt lat="44.47119" lon="0.93488">
        <ele>62.14</ele>
        <time>2013-12-21T16:09:58Z</time>
      </trkpt>
      <trkpt lat="44.47121" lon="0.93488">
        <ele>62.14</ele>
        <time>2013-12-21T16:09:59Z</time>
      </trkpt>
      <trkpt lat="44.47161" lon="0.93472">
        <ele>62.62</ele>
        <time>2013-12-21T16:10:13Z</time>
      </trkpt>
      <trkpt lat="44.47203" lon="0.93451">
        <ele>63.1</ele>
        <time>2013-12-21T16:10:27Z</time>
      </trkpt>
      <trkpt lat="44.4721" lon="0.93426">
        <ele>63.1</ele>
        <time>2013-12-21T16:10:36Z</time>
      </trkpt>
      <trkpt lat="44.47209" lon="0.93423">
        <ele>63.1</ele>
        <time>2013-12-21T16:10:38Z</time>
      </trkpt>
      <trkpt lat="44.47208" lon="0.93422">
        <ele>63.58</ele>
        <time>2013-12-21T16:10:39Z</time>
      </trkpt>
      <trkpt lat="44.47207" lon="0.93419">
        <ele>63.58</ele>
        <time>2013-12-21T16:10:51Z</time>
      </trkpt>
      <trkpt lat="44.47206" lon="0.93417">
        <ele>63.1</ele>
        <time>2013-12-21T16:11:03Z</time>
      </trkpt>
      <trkpt lat="44.47205" lon="0.93416">
        <ele>63.1</ele>
        <time>2013-12-21T16:11:38Z</time>
      </trkpt>
      <trkpt lat="44.47206" lon="0.93416">
        <ele>65.03</ele>
        <time>2013-12-21T16:12:11Z</time>
      </trkpt>
      <trkpt lat="44.47207" lon="0.93416">
        <ele>66.47</ele>
        <time>2013-12-21T16:12:43Z</time>
      </trkpt>
      <trkpt lat="44.47207" lon="0.93416">
        <ele>65.99</ele>
        <time>2013-12-21T16:13:17Z</time>
      </trkpt>
      <trkpt lat="44.47206" lon="0.93415">
        <ele>65.51</ele>
        <time>2013-12-21T16:13:39Z</time>
      </trkpt>
    </trkseg>
  </trk>
</gpx>